<?xml version="1.0" encoding="UTF-8" standalone="no" ?>
<gpx xmlns="http://www.topografix.com/GPX/1/1" xmlns:xsi="http://www.w3.org/2001/XMLSchema-instance" xsi:schemaLocation="http://www.topografix.com/GPX/1/1 http://www.topografix.com/GPX/1/1/gpx.xsd" version="1.1" creator="VisuGPX - https://www.visugpx.com">
  <metadata>
    <name>RANDO GERS CE Dimanche</name>
    <desc><![CDATA[Rando CE TOS du 18/09/2011]]></desc>
  </metadata>
  <trk>
    <name><![CDATA[18 sept. 2011 Gers Dimanche]]></name>
    <cmt><![CDATA[18 sept. 2011 10:09:37]]></cmt>
    <trkseg>
      <trkpt lat="43.93421" lon="0.62317">
        <ele>173</ele>
        <time>2011-09-18T08:09:37Z</time>
      </trkpt>
      <trkpt lat="43.9341" lon="0.62319">
        <ele>174</ele>
        <time>2011-09-18T08:10:01Z</time>
      </trkpt>
      <trkpt lat="43.93399" lon="0.62329">
        <ele>175</ele>
        <time>2011-09-18T08:10:14Z</time>
      </trkpt>
      <trkpt lat="43.93399" lon="0.62322">
        <ele>175</ele>
        <time>2011-09-18T08:10:39Z</time>
      </trkpt>
      <trkpt lat="43.93406" lon="0.6233">
        <ele>176</ele>
        <time>2011-09-18T08:11:08Z</time>
      </trkpt>
      <trkpt lat="43.93412" lon="0.62342">
        <ele>176</ele>
        <time>2011-09-18T08:11:17Z</time>
      </trkpt>
      <trkpt lat="43.93413" lon="0.62356">
        <ele>176</ele>
        <time>2011-09-18T08:11:26Z</time>
      </trkpt>
      <trkpt lat="43.93405" lon="0.62379">
        <ele>175</ele>
        <time>2011-09-18T08:11:43Z</time>
      </trkpt>
      <trkpt lat="43.93389" lon="0.62414">
        <ele>175</ele>
        <time>2011-09-18T08:12:13Z</time>
      </trkpt>
      <trkpt lat="43.93398" lon="0.62419">
        <ele>176</ele>
        <time>2011-09-18T08:12:20Z</time>
      </trkpt>
      <trkpt lat="43.93418" lon="0.62453">
        <ele>177</ele>
        <time>2011-09-18T08:12:43Z</time>
      </trkpt>
      <trkpt lat="43.9342" lon="0.62471">
        <ele>178</ele>
        <time>2011-09-18T08:12:55Z</time>
      </trkpt>
      <trkpt lat="43.93416" lon="0.62481">
        <ele>178</ele>
        <time>2011-09-18T08:13:00Z</time>
      </trkpt>
      <trkpt lat="43.93418" lon="0.62488">
        <ele>178</ele>
        <time>2011-09-18T08:13:04Z</time>
      </trkpt>
      <trkpt lat="43.93421" lon="0.62494">
        <ele>178</ele>
        <time>2011-09-18T08:13:08Z</time>
      </trkpt>
      <trkpt lat="43.93427" lon="0.62498">
        <ele>179</ele>
        <time>2011-09-18T08:13:15Z</time>
      </trkpt>
      <trkpt lat="43.93442" lon="0.62497">
        <ele>179</ele>
        <time>2011-09-18T08:13:28Z</time>
      </trkpt>
      <trkpt lat="43.93446" lon="0.62493">
        <ele>179</ele>
        <time>2011-09-18T08:13:35Z</time>
      </trkpt>
      <trkpt lat="43.93479" lon="0.62467">
        <ele>179</ele>
        <time>2011-09-18T08:14:11Z</time>
      </trkpt>
      <trkpt lat="43.93505" lon="0.6245">
        <ele>179</ele>
        <time>2011-09-18T08:14:41Z</time>
      </trkpt>
      <trkpt lat="43.93539" lon="0.62431">
        <ele>177</ele>
        <time>2011-09-18T08:15:15Z</time>
      </trkpt>
      <trkpt lat="43.93572" lon="0.62428">
        <ele>175</ele>
        <time>2011-09-18T08:15:58Z</time>
      </trkpt>
      <trkpt lat="43.93579" lon="0.62432">
        <ele>173</ele>
        <time>2011-09-18T08:16:11Z</time>
      </trkpt>
      <trkpt lat="43.93577" lon="0.62427">
        <ele>172</ele>
        <time>2011-09-18T08:16:24Z</time>
      </trkpt>
      <trkpt lat="43.93575" lon="0.62384">
        <ele>168</ele>
        <time>2011-09-18T08:17:00Z</time>
      </trkpt>
      <trkpt lat="43.93584" lon="0.62358">
        <ele>167</ele>
        <time>2011-09-18T08:17:23Z</time>
      </trkpt>
      <trkpt lat="43.936" lon="0.62352">
        <ele>167</ele>
        <time>2011-09-18T08:17:42Z</time>
      </trkpt>
      <trkpt lat="43.93605" lon="0.62349">
        <ele>166</ele>
        <time>2011-09-18T08:17:48Z</time>
      </trkpt>
      <trkpt lat="43.9363" lon="0.62348">
        <ele>163</ele>
        <time>2011-09-18T08:18:23Z</time>
      </trkpt>
      <trkpt lat="43.93664" lon="0.62348">
        <ele>159</ele>
        <time>2011-09-18T08:19:01Z</time>
      </trkpt>
      <trkpt lat="43.93691" lon="0.62343">
        <ele>157</ele>
        <time>2011-09-18T08:19:33Z</time>
      </trkpt>
      <trkpt lat="43.93701" lon="0.6234">
        <ele>157</ele>
        <time>2011-09-18T08:19:43Z</time>
      </trkpt>
      <trkpt lat="43.93726" lon="0.62325">
        <ele>150</ele>
        <time>2011-09-18T08:20:20Z</time>
      </trkpt>
      <trkpt lat="43.93752" lon="0.62311">
        <ele>144</ele>
        <time>2011-09-18T08:20:58Z</time>
      </trkpt>
      <trkpt lat="43.9378" lon="0.62303">
        <ele>137</ele>
        <time>2011-09-18T08:21:30Z</time>
      </trkpt>
      <trkpt lat="43.93808" lon="0.62301">
        <ele>129</ele>
        <time>2011-09-18T08:22:01Z</time>
      </trkpt>
      <trkpt lat="43.93828" lon="0.62289">
        <ele>124</ele>
        <time>2011-09-18T08:22:24Z</time>
      </trkpt>
      <trkpt lat="43.93831" lon="0.62283">
        <ele>121</ele>
        <time>2011-09-18T08:22:34Z</time>
      </trkpt>
      <trkpt lat="43.93856" lon="0.6227">
        <ele>117</ele>
        <time>2011-09-18T08:22:56Z</time>
      </trkpt>
      <trkpt lat="43.93863" lon="0.62272">
        <ele>114</ele>
        <time>2011-09-18T08:23:08Z</time>
      </trkpt>
      <trkpt lat="43.93864" lon="0.62278">
        <ele>113</ele>
        <time>2011-09-18T08:23:21Z</time>
      </trkpt>
      <trkpt lat="43.9386" lon="0.62279">
        <ele>111</ele>
        <time>2011-09-18T08:23:56Z</time>
      </trkpt>
      <trkpt lat="43.93865" lon="0.62287">
        <ele>109</ele>
        <time>2011-09-18T08:24:11Z</time>
      </trkpt>
      <trkpt lat="43.93862" lon="0.623">
        <ele>107</ele>
        <time>2011-09-18T08:24:39Z</time>
      </trkpt>
      <trkpt lat="43.93865" lon="0.62305">
        <ele>106</ele>
        <time>2011-09-18T08:24:50Z</time>
      </trkpt>
      <trkpt lat="43.9387" lon="0.62342">
        <ele>103</ele>
        <time>2011-09-18T08:25:20Z</time>
      </trkpt>
      <trkpt lat="43.93867" lon="0.62356">
        <ele>102</ele>
        <time>2011-09-18T08:25:32Z</time>
      </trkpt>
      <trkpt lat="43.93881" lon="0.62408">
        <ele>100</ele>
        <time>2011-09-18T08:26:06Z</time>
      </trkpt>
      <trkpt lat="43.93887" lon="0.62451">
        <ele>98</ele>
        <time>2011-09-18T08:26:36Z</time>
      </trkpt>
      <trkpt lat="43.93899" lon="0.62495">
        <ele>97</ele>
        <time>2011-09-18T08:27:07Z</time>
      </trkpt>
      <trkpt lat="43.93895" lon="0.62536">
        <ele>97</ele>
        <time>2011-09-18T08:27:35Z</time>
      </trkpt>
      <trkpt lat="43.9388" lon="0.62579">
        <ele>98</ele>
        <time>2011-09-18T08:28:06Z</time>
      </trkpt>
      <trkpt lat="43.93863" lon="0.6263">
        <ele>97</ele>
        <time>2011-09-18T08:28:38Z</time>
      </trkpt>
      <trkpt lat="43.93854" lon="0.62664">
        <ele>98</ele>
        <time>2011-09-18T08:29:00Z</time>
      </trkpt>
      <trkpt lat="43.93853" lon="0.62692">
        <ele>98</ele>
        <time>2011-09-18T08:29:18Z</time>
      </trkpt>
      <trkpt lat="43.93854" lon="0.62748">
        <ele>98</ele>
        <time>2011-09-18T08:29:53Z</time>
      </trkpt>
      <trkpt lat="43.93847" lon="0.62798">
        <ele>99</ele>
        <time>2011-09-18T08:30:25Z</time>
      </trkpt>
      <trkpt lat="43.93836" lon="0.62853">
        <ele>99</ele>
        <time>2011-09-18T08:30:59Z</time>
      </trkpt>
      <trkpt lat="43.93835" lon="0.62882">
        <ele>99</ele>
        <time>2011-09-18T08:31:14Z</time>
      </trkpt>
      <trkpt lat="43.9384" lon="0.629">
        <ele>100</ele>
        <time>2011-09-18T08:31:27Z</time>
      </trkpt>
      <trkpt lat="43.93836" lon="0.62914">
        <ele>100</ele>
        <time>2011-09-18T08:31:36Z</time>
      </trkpt>
      <trkpt lat="43.93837" lon="0.62928">
        <ele>101</ele>
        <time>2011-09-18T08:31:44Z</time>
      </trkpt>
      <trkpt lat="43.93841" lon="0.62932">
        <ele>101</ele>
        <time>2011-09-18T08:31:50Z</time>
      </trkpt>
      <trkpt lat="43.93867" lon="0.62941">
        <ele>103</ele>
        <time>2011-09-18T08:32:22Z</time>
      </trkpt>
      <trkpt lat="43.93898" lon="0.62964">
        <ele>104</ele>
        <time>2011-09-18T08:32:58Z</time>
      </trkpt>
      <trkpt lat="43.93913" lon="0.62988">
        <ele>105</ele>
        <time>2011-09-18T08:33:22Z</time>
      </trkpt>
      <trkpt lat="43.93937" lon="0.62995">
        <ele>106</ele>
        <time>2011-09-18T08:33:56Z</time>
      </trkpt>
      <trkpt lat="43.93973" lon="0.63013">
        <ele>108</ele>
        <time>2011-09-18T08:34:33Z</time>
      </trkpt>
      <trkpt lat="43.94007" lon="0.63025">
        <ele>113</ele>
        <time>2011-09-18T08:35:04Z</time>
      </trkpt>
      <trkpt lat="43.94022" lon="0.63031">
        <ele>116</ele>
        <time>2011-09-18T08:35:26Z</time>
      </trkpt>
      <trkpt lat="43.94032" lon="0.63047">
        <ele>119</ele>
        <time>2011-09-18T08:35:49Z</time>
      </trkpt>
      <trkpt lat="43.94063" lon="0.63071">
        <ele>122</ele>
        <time>2011-09-18T08:36:21Z</time>
      </trkpt>
      <trkpt lat="43.94091" lon="0.63106">
        <ele>124</ele>
        <time>2011-09-18T08:36:58Z</time>
      </trkpt>
      <trkpt lat="43.94129" lon="0.63114">
        <ele>125</ele>
        <time>2011-09-18T08:37:38Z</time>
      </trkpt>
      <trkpt lat="43.94167" lon="0.63126">
        <ele>125</ele>
        <time>2011-09-18T08:38:14Z</time>
      </trkpt>
      <trkpt lat="43.9418" lon="0.63144">
        <ele>125</ele>
        <time>2011-09-18T08:38:46Z</time>
      </trkpt>
      <trkpt lat="43.94183" lon="0.63149">
        <ele>125</ele>
        <time>2011-09-18T08:38:57Z</time>
      </trkpt>
      <trkpt lat="43.94183" lon="0.63155">
        <ele>128</ele>
        <time>2011-09-18T08:40:27Z</time>
      </trkpt>
      <trkpt lat="43.94172" lon="0.63151">
        <ele>128</ele>
        <time>2011-09-18T08:41:03Z</time>
      </trkpt>
      <trkpt lat="43.94167" lon="0.6316">
        <ele>131</ele>
        <time>2011-09-18T08:42:27Z</time>
      </trkpt>
      <trkpt lat="43.94166" lon="0.63176">
        <ele>133</ele>
        <time>2011-09-18T08:42:50Z</time>
      </trkpt>
      <trkpt lat="43.94165" lon="0.63189">
        <ele>133</ele>
        <time>2011-09-18T08:43:02Z</time>
      </trkpt>
      <trkpt lat="43.94169" lon="0.63201">
        <ele>133</ele>
        <time>2011-09-18T08:43:20Z</time>
      </trkpt>
      <trkpt lat="43.94167" lon="0.63216">
        <ele>133</ele>
        <time>2011-09-18T08:43:32Z</time>
      </trkpt>
      <trkpt lat="43.94159" lon="0.63243">
        <ele>131</ele>
        <time>2011-09-18T08:44:10Z</time>
      </trkpt>
      <trkpt lat="43.94156" lon="0.63249">
        <ele>131</ele>
        <time>2011-09-18T08:44:21Z</time>
      </trkpt>
      <trkpt lat="43.94157" lon="0.63263">
        <ele>130</ele>
        <time>2011-09-18T08:44:52Z</time>
      </trkpt>
      <trkpt lat="43.94157" lon="0.6331">
        <ele>129</ele>
        <time>2011-09-18T08:45:26Z</time>
      </trkpt>
      <trkpt lat="43.94156" lon="0.63323">
        <ele>129</ele>
        <time>2011-09-18T08:45:37Z</time>
      </trkpt>
      <trkpt lat="43.94147" lon="0.63346">
        <ele>128</ele>
        <time>2011-09-18T08:46:04Z</time>
      </trkpt>
      <trkpt lat="43.94148" lon="0.6336">
        <ele>128</ele>
        <time>2011-09-18T08:46:15Z</time>
      </trkpt>
      <trkpt lat="43.94143" lon="0.63373">
        <ele>127</ele>
        <time>2011-09-18T08:46:26Z</time>
      </trkpt>
      <trkpt lat="43.94145" lon="0.63391">
        <ele>127</ele>
        <time>2011-09-18T08:46:41Z</time>
      </trkpt>
      <trkpt lat="43.94154" lon="0.63416">
        <ele>126</ele>
        <time>2011-09-18T08:46:56Z</time>
      </trkpt>
      <trkpt lat="43.94155" lon="0.63463">
        <ele>124</ele>
        <time>2011-09-18T08:47:29Z</time>
      </trkpt>
      <trkpt lat="43.94165" lon="0.63489">
        <ele>123</ele>
        <time>2011-09-18T08:47:46Z</time>
      </trkpt>
      <trkpt lat="43.9417" lon="0.63506">
        <ele>124</ele>
        <time>2011-09-18T08:47:57Z</time>
      </trkpt>
      <trkpt lat="43.94196" lon="0.63537">
        <ele>126</ele>
        <time>2011-09-18T08:48:28Z</time>
      </trkpt>
      <trkpt lat="43.942" lon="0.6355">
        <ele>126</ele>
        <time>2011-09-18T08:48:40Z</time>
      </trkpt>
      <trkpt lat="43.94195" lon="0.63588">
        <ele>128</ele>
        <time>2011-09-18T08:49:14Z</time>
      </trkpt>
      <trkpt lat="43.94191" lon="0.63605">
        <ele>129</ele>
        <time>2011-09-18T08:49:30Z</time>
      </trkpt>
      <trkpt lat="43.94193" lon="0.63619">
        <ele>130</ele>
        <time>2011-09-18T08:49:41Z</time>
      </trkpt>
      <trkpt lat="43.94191" lon="0.63633">
        <ele>131</ele>
        <time>2011-09-18T08:49:51Z</time>
      </trkpt>
      <trkpt lat="43.94199" lon="0.63687">
        <ele>135</ele>
        <time>2011-09-18T08:50:26Z</time>
      </trkpt>
      <trkpt lat="43.94199" lon="0.63715">
        <ele>137</ele>
        <time>2011-09-18T08:50:46Z</time>
      </trkpt>
      <trkpt lat="43.94202" lon="0.63728">
        <ele>137</ele>
        <time>2011-09-18T08:50:54Z</time>
      </trkpt>
      <trkpt lat="43.94203" lon="0.63755">
        <ele>139</ele>
        <time>2011-09-18T08:51:15Z</time>
      </trkpt>
      <trkpt lat="43.94216" lon="0.63802">
        <ele>140</ele>
        <time>2011-09-18T08:51:47Z</time>
      </trkpt>
      <trkpt lat="43.94223" lon="0.63812">
        <ele>140</ele>
        <time>2011-09-18T08:51:54Z</time>
      </trkpt>
      <trkpt lat="43.94225" lon="0.63826">
        <ele>141</ele>
        <time>2011-09-18T08:52:02Z</time>
      </trkpt>
      <trkpt lat="43.94227" lon="0.63877">
        <ele>142</ele>
        <time>2011-09-18T08:52:35Z</time>
      </trkpt>
      <trkpt lat="43.94229" lon="0.6389">
        <ele>143</ele>
        <time>2011-09-18T08:52:45Z</time>
      </trkpt>
      <trkpt lat="43.94222" lon="0.63946">
        <ele>144</ele>
        <time>2011-09-18T08:53:16Z</time>
      </trkpt>
      <trkpt lat="43.9424" lon="0.64003">
        <ele>147</ele>
        <time>2011-09-18T08:53:52Z</time>
      </trkpt>
      <trkpt lat="43.9425" lon="0.64054">
        <ele>150</ele>
        <time>2011-09-18T08:54:28Z</time>
      </trkpt>
      <trkpt lat="43.94263" lon="0.64105">
        <ele>153</ele>
        <time>2011-09-18T08:54:59Z</time>
      </trkpt>
      <trkpt lat="43.94276" lon="0.64136">
        <ele>156</ele>
        <time>2011-09-18T08:55:30Z</time>
      </trkpt>
      <trkpt lat="43.94301" lon="0.6417">
        <ele>158</ele>
        <time>2011-09-18T08:56:04Z</time>
      </trkpt>
      <trkpt lat="43.94325" lon="0.64213">
        <ele>159</ele>
        <time>2011-09-18T08:56:36Z</time>
      </trkpt>
      <trkpt lat="43.94355" lon="0.64256">
        <ele>161</ele>
        <time>2011-09-18T08:57:09Z</time>
      </trkpt>
      <trkpt lat="43.94382" lon="0.643">
        <ele>164</ele>
        <time>2011-09-18T08:57:46Z</time>
      </trkpt>
      <trkpt lat="43.94398" lon="0.64346">
        <ele>166</ele>
        <time>2011-09-18T08:58:18Z</time>
      </trkpt>
      <trkpt lat="43.94406" lon="0.64405">
        <ele>170</ele>
        <time>2011-09-18T08:58:56Z</time>
      </trkpt>
      <trkpt lat="43.94419" lon="0.64458">
        <ele>173</ele>
        <time>2011-09-18T08:59:34Z</time>
      </trkpt>
      <trkpt lat="43.94437" lon="0.64508">
        <ele>175</ele>
        <time>2011-09-18T09:00:06Z</time>
      </trkpt>
      <trkpt lat="43.94464" lon="0.64556">
        <ele>177</ele>
        <time>2011-09-18T09:00:44Z</time>
      </trkpt>
      <trkpt lat="43.94474" lon="0.64573">
        <ele>177</ele>
        <time>2011-09-18T09:01:00Z</time>
      </trkpt>
      <trkpt lat="43.94475" lon="0.64582">
        <ele>178</ele>
        <time>2011-09-18T09:01:14Z</time>
      </trkpt>
      <trkpt lat="43.94472" lon="0.64604">
        <ele>180</ele>
        <time>2011-09-18T09:01:37Z</time>
      </trkpt>
      <trkpt lat="43.94468" lon="0.64606">
        <ele>181</ele>
        <time>2011-09-18T09:02:16Z</time>
      </trkpt>
      <trkpt lat="43.94466" lon="0.6461">
        <ele>183</ele>
        <time>2011-09-18T09:02:54Z</time>
      </trkpt>
      <trkpt lat="43.94468" lon="0.64607">
        <ele>186</ele>
        <time>2011-09-18T09:04:33Z</time>
      </trkpt>
      <trkpt lat="43.94471" lon="0.64604">
        <ele>188</ele>
        <time>2011-09-18T09:05:45Z</time>
      </trkpt>
      <trkpt lat="43.9447" lon="0.64604">
        <ele>189</ele>
        <time>2011-09-18T09:06:30Z</time>
      </trkpt>
      <trkpt lat="43.94466" lon="0.64607">
        <ele>190</ele>
        <time>2011-09-18T09:06:55Z</time>
      </trkpt>
      <trkpt lat="43.94466" lon="0.64611">
        <ele>191</ele>
        <time>2011-09-18T09:07:29Z</time>
      </trkpt>
      <trkpt lat="43.94466" lon="0.64616">
        <ele>192</ele>
        <time>2011-09-18T09:08:09Z</time>
      </trkpt>
      <trkpt lat="43.9447" lon="0.64619">
        <ele>192</ele>
        <time>2011-09-18T09:08:12Z</time>
      </trkpt>
      <trkpt lat="43.94469" lon="0.64626">
        <ele>193</ele>
        <time>2011-09-18T09:08:42Z</time>
      </trkpt>
      <trkpt lat="43.94459" lon="0.64674">
        <ele>194</ele>
        <time>2011-09-18T09:09:16Z</time>
      </trkpt>
      <trkpt lat="43.94447" lon="0.64729">
        <ele>193</ele>
        <time>2011-09-18T09:09:49Z</time>
      </trkpt>
      <trkpt lat="43.94443" lon="0.64752">
        <ele>193</ele>
        <time>2011-09-18T09:10:04Z</time>
      </trkpt>
      <trkpt lat="43.94424" lon="0.64795">
        <ele>192</ele>
        <time>2011-09-18T09:10:36Z</time>
      </trkpt>
      <trkpt lat="43.94405" lon="0.6484">
        <ele>190</ele>
        <time>2011-09-18T09:11:07Z</time>
      </trkpt>
      <trkpt lat="43.94369" lon="0.64853">
        <ele>189</ele>
        <time>2011-09-18T09:11:37Z</time>
      </trkpt>
      <trkpt lat="43.94355" lon="0.64855">
        <ele>189</ele>
        <time>2011-09-18T09:11:52Z</time>
      </trkpt>
      <trkpt lat="43.94348" lon="0.64855">
        <ele>188</ele>
        <time>2011-09-18T09:12:14Z</time>
      </trkpt>
      <trkpt lat="43.94315" lon="0.64865">
        <ele>186</ele>
        <time>2011-09-18T09:12:44Z</time>
      </trkpt>
      <trkpt lat="43.94279" lon="0.64872">
        <ele>184</ele>
        <time>2011-09-18T09:13:14Z</time>
      </trkpt>
      <trkpt lat="43.94239" lon="0.64889">
        <ele>181</ele>
        <time>2011-09-18T09:13:48Z</time>
      </trkpt>
      <trkpt lat="43.94198" lon="0.6491">
        <ele>179</ele>
        <time>2011-09-18T09:14:25Z</time>
      </trkpt>
      <trkpt lat="43.9416" lon="0.64941">
        <ele>177</ele>
        <time>2011-09-18T09:14:59Z</time>
      </trkpt>
      <trkpt lat="43.94124" lon="0.64964">
        <ele>174</ele>
        <time>2011-09-18T09:15:31Z</time>
      </trkpt>
      <trkpt lat="43.94091" lon="0.64999">
        <ele>169</ele>
        <time>2011-09-18T09:16:03Z</time>
      </trkpt>
      <trkpt lat="43.94067" lon="0.65022">
        <ele>166</ele>
        <time>2011-09-18T09:16:28Z</time>
      </trkpt>
      <trkpt lat="43.94071" lon="0.65026">
        <ele>166</ele>
        <time>2011-09-18T09:16:34Z</time>
      </trkpt>
      <trkpt lat="43.94099" lon="0.65045">
        <ele>164</ele>
        <time>2011-09-18T09:17:06Z</time>
      </trkpt>
      <trkpt lat="43.94114" lon="0.65052">
        <ele>164</ele>
        <time>2011-09-18T09:17:24Z</time>
      </trkpt>
      <trkpt lat="43.94118" lon="0.65057">
        <ele>164</ele>
        <time>2011-09-18T09:17:30Z</time>
      </trkpt>
      <trkpt lat="43.94146" lon="0.6507">
        <ele>164</ele>
        <time>2011-09-18T09:18:02Z</time>
      </trkpt>
      <trkpt lat="43.94185" lon="0.65076">
        <ele>164</ele>
        <time>2011-09-18T09:18:33Z</time>
      </trkpt>
      <trkpt lat="43.94221" lon="0.65095">
        <ele>166</ele>
        <time>2011-09-18T09:19:10Z</time>
      </trkpt>
      <trkpt lat="43.94243" lon="0.6511">
        <ele>167</ele>
        <time>2011-09-18T09:19:26Z</time>
      </trkpt>
      <trkpt lat="43.94263" lon="0.65151">
        <ele>171</ele>
        <time>2011-09-18T09:20:02Z</time>
      </trkpt>
      <trkpt lat="43.94292" lon="0.65182">
        <ele>175</ele>
        <time>2011-09-18T09:20:29Z</time>
      </trkpt>
      <trkpt lat="43.94293" lon="0.65189">
        <ele>177</ele>
        <time>2011-09-18T09:20:36Z</time>
      </trkpt>
      <trkpt lat="43.94306" lon="0.65212">
        <ele>181</ele>
        <time>2011-09-18T09:20:56Z</time>
      </trkpt>
      <trkpt lat="43.94333" lon="0.65245">
        <ele>186</ele>
        <time>2011-09-18T09:21:27Z</time>
      </trkpt>
      <trkpt lat="43.94362" lon="0.65275">
        <ele>189</ele>
        <time>2011-09-18T09:22:01Z</time>
      </trkpt>
      <trkpt lat="43.94391" lon="0.65303">
        <ele>191</ele>
        <time>2011-09-18T09:22:33Z</time>
      </trkpt>
      <trkpt lat="43.94424" lon="0.65323">
        <ele>193</ele>
        <time>2011-09-18T09:23:06Z</time>
      </trkpt>
      <trkpt lat="43.94454" lon="0.65354">
        <ele>195</ele>
        <time>2011-09-18T09:23:38Z</time>
      </trkpt>
      <trkpt lat="43.94486" lon="0.65384">
        <ele>196</ele>
        <time>2011-09-18T09:24:11Z</time>
      </trkpt>
      <trkpt lat="43.94516" lon="0.65412">
        <ele>197</ele>
        <time>2011-09-18T09:24:42Z</time>
      </trkpt>
      <trkpt lat="43.94549" lon="0.65427">
        <ele>198</ele>
        <time>2011-09-18T09:25:20Z</time>
      </trkpt>
      <trkpt lat="43.94551" lon="0.65435">
        <ele>198</ele>
        <time>2011-09-18T09:25:26Z</time>
      </trkpt>
      <trkpt lat="43.94555" lon="0.65432">
        <ele>198</ele>
        <time>2011-09-18T09:25:52Z</time>
      </trkpt>
      <trkpt lat="43.94553" lon="0.65425">
        <ele>198</ele>
        <time>2011-09-18T09:26:01Z</time>
      </trkpt>
      <trkpt lat="43.94545" lon="0.65422">
        <ele>199</ele>
        <time>2011-09-18T09:26:40Z</time>
      </trkpt>
      <trkpt lat="43.94545" lon="0.65418">
        <ele>199</ele>
        <time>2011-09-18T09:26:47Z</time>
      </trkpt>
      <trkpt lat="43.94546" lon="0.65417">
        <ele>200</ele>
        <time>2011-09-18T09:28:04Z</time>
      </trkpt>
      <trkpt lat="43.94537" lon="0.6542">
        <ele>200</ele>
        <time>2011-09-18T09:29:16Z</time>
      </trkpt>
      <trkpt lat="43.94529" lon="0.65421">
        <ele>200</ele>
        <time>2011-09-18T09:29:35Z</time>
      </trkpt>
      <trkpt lat="43.94531" lon="0.65434">
        <ele>200</ele>
        <time>2011-09-18T09:29:50Z</time>
      </trkpt>
      <trkpt lat="43.94519" lon="0.65446">
        <ele>200</ele>
        <time>2011-09-18T09:30:10Z</time>
      </trkpt>
      <trkpt lat="43.94521" lon="0.65456">
        <ele>200</ele>
        <time>2011-09-18T09:30:41Z</time>
      </trkpt>
      <trkpt lat="43.94549" lon="0.65424">
        <ele>200</ele>
        <time>2011-09-18T09:30:50Z</time>
      </trkpt>
      <trkpt lat="43.94558" lon="0.65425">
        <ele>200</ele>
        <time>2011-09-18T09:30:57Z</time>
      </trkpt>
      <trkpt lat="43.94584" lon="0.65439">
        <ele>203</ele>
        <time>2011-09-18T09:31:30Z</time>
      </trkpt>
      <trkpt lat="43.94616" lon="0.65457">
        <ele>205</ele>
        <time>2011-09-18T09:32:01Z</time>
      </trkpt>
      <trkpt lat="43.94651" lon="0.65476">
        <ele>207</ele>
        <time>2011-09-18T09:32:35Z</time>
      </trkpt>
      <trkpt lat="43.94684" lon="0.65493">
        <ele>208</ele>
        <time>2011-09-18T09:33:05Z</time>
      </trkpt>
      <trkpt lat="43.94722" lon="0.65513">
        <ele>208</ele>
        <time>2011-09-18T09:33:40Z</time>
      </trkpt>
      <trkpt lat="43.94755" lon="0.65527">
        <ele>207</ele>
        <time>2011-09-18T09:34:11Z</time>
      </trkpt>
      <trkpt lat="43.94787" lon="0.65542">
        <ele>207</ele>
        <time>2011-09-18T09:34:41Z</time>
      </trkpt>
      <trkpt lat="43.94822" lon="0.65566">
        <ele>207</ele>
        <time>2011-09-18T09:35:13Z</time>
      </trkpt>
      <trkpt lat="43.94826" lon="0.65567">
        <ele>207</ele>
        <time>2011-09-18T09:35:16Z</time>
      </trkpt>
      <trkpt lat="43.94857" lon="0.65539">
        <ele>208</ele>
        <time>2011-09-18T09:35:49Z</time>
      </trkpt>
      <trkpt lat="43.94892" lon="0.65532">
        <ele>209</ele>
        <time>2011-09-18T09:36:22Z</time>
      </trkpt>
      <trkpt lat="43.9493" lon="0.65545">
        <ele>209</ele>
        <time>2011-09-18T09:36:56Z</time>
      </trkpt>
      <trkpt lat="43.94965" lon="0.65573">
        <ele>208</ele>
        <time>2011-09-18T09:37:28Z</time>
      </trkpt>
      <trkpt lat="43.94998" lon="0.65599">
        <ele>207</ele>
        <time>2011-09-18T09:38:01Z</time>
      </trkpt>
      <trkpt lat="43.95038" lon="0.65632">
        <ele>206</ele>
        <time>2011-09-18T09:38:39Z</time>
      </trkpt>
      <trkpt lat="43.95042" lon="0.65637">
        <ele>206</ele>
        <time>2011-09-18T09:38:44Z</time>
      </trkpt>
      <trkpt lat="43.95078" lon="0.65662">
        <ele>206</ele>
        <time>2011-09-18T09:39:17Z</time>
      </trkpt>
      <trkpt lat="43.95109" lon="0.65688">
        <ele>205</ele>
        <time>2011-09-18T09:39:49Z</time>
      </trkpt>
      <trkpt lat="43.95151" lon="0.65717">
        <ele>204</ele>
        <time>2011-09-18T09:40:25Z</time>
      </trkpt>
      <trkpt lat="43.95192" lon="0.65747">
        <ele>201</ele>
        <time>2011-09-18T09:41:01Z</time>
      </trkpt>
      <trkpt lat="43.95224" lon="0.65773">
        <ele>200</ele>
        <time>2011-09-18T09:41:33Z</time>
      </trkpt>
      <trkpt lat="43.9526" lon="0.65801">
        <ele>198</ele>
        <time>2011-09-18T09:42:06Z</time>
      </trkpt>
      <trkpt lat="43.95296" lon="0.65828">
        <ele>195</ele>
        <time>2011-09-18T09:42:40Z</time>
      </trkpt>
      <trkpt lat="43.95337" lon="0.65859">
        <ele>192</ele>
        <time>2011-09-18T09:43:14Z</time>
      </trkpt>
      <trkpt lat="43.95367" lon="0.65885">
        <ele>189</ele>
        <time>2011-09-18T09:43:46Z</time>
      </trkpt>
      <trkpt lat="43.95402" lon="0.6591">
        <ele>187</ele>
        <time>2011-09-18T09:44:17Z</time>
      </trkpt>
      <trkpt lat="43.95441" lon="0.6594">
        <ele>184</ele>
        <time>2011-09-18T09:44:53Z</time>
      </trkpt>
      <trkpt lat="43.95464" lon="0.65969">
        <ele>182</ele>
        <time>2011-09-18T09:45:20Z</time>
      </trkpt>
      <trkpt lat="43.9547" lon="0.6602">
        <ele>179</ele>
        <time>2011-09-18T09:45:51Z</time>
      </trkpt>
      <trkpt lat="43.95479" lon="0.66071">
        <ele>175</ele>
        <time>2011-09-18T09:46:22Z</time>
      </trkpt>
      <trkpt lat="43.95488" lon="0.66113">
        <ele>172</ele>
        <time>2011-09-18T09:46:49Z</time>
      </trkpt>
      <trkpt lat="43.95493" lon="0.66114">
        <ele>171</ele>
        <time>2011-09-18T09:46:54Z</time>
      </trkpt>
      <trkpt lat="43.95522" lon="0.66114">
        <ele>168</ele>
        <time>2011-09-18T09:47:25Z</time>
      </trkpt>
      <trkpt lat="43.95552" lon="0.66112">
        <ele>166</ele>
        <time>2011-09-18T09:47:57Z</time>
      </trkpt>
      <trkpt lat="43.95589" lon="0.66109">
        <ele>166</ele>
        <time>2011-09-18T09:48:28Z</time>
      </trkpt>
      <trkpt lat="43.95623" lon="0.6611">
        <ele>166</ele>
        <time>2011-09-18T09:49:01Z</time>
      </trkpt>
      <trkpt lat="43.95656" lon="0.66116">
        <ele>167</ele>
        <time>2011-09-18T09:49:36Z</time>
      </trkpt>
      <trkpt lat="43.95684" lon="0.66138">
        <ele>168</ele>
        <time>2011-09-18T09:50:16Z</time>
      </trkpt>
      <trkpt lat="43.95715" lon="0.66162">
        <ele>170</ele>
        <time>2011-09-18T09:50:53Z</time>
      </trkpt>
      <trkpt lat="43.95743" lon="0.66175">
        <ele>172</ele>
        <time>2011-09-18T09:51:25Z</time>
      </trkpt>
      <trkpt lat="43.95775" lon="0.66197">
        <ele>176</ele>
        <time>2011-09-18T09:51:59Z</time>
      </trkpt>
      <trkpt lat="43.95806" lon="0.66227">
        <ele>179</ele>
        <time>2011-09-18T09:52:32Z</time>
      </trkpt>
      <trkpt lat="43.95835" lon="0.66258">
        <ele>181</ele>
        <time>2011-09-18T09:53:02Z</time>
      </trkpt>
      <trkpt lat="43.95871" lon="0.66289">
        <ele>183</ele>
        <time>2011-09-18T09:53:35Z</time>
      </trkpt>
      <trkpt lat="43.95902" lon="0.66321">
        <ele>186</ele>
        <time>2011-09-18T09:54:08Z</time>
      </trkpt>
      <trkpt lat="43.95933" lon="0.66354">
        <ele>188</ele>
        <time>2011-09-18T09:54:41Z</time>
      </trkpt>
      <trkpt lat="43.95967" lon="0.66384">
        <ele>190</ele>
        <time>2011-09-18T09:55:13Z</time>
      </trkpt>
      <trkpt lat="43.96004" lon="0.66421">
        <ele>191</ele>
        <time>2011-09-18T09:55:48Z</time>
      </trkpt>
      <trkpt lat="43.96038" lon="0.66439">
        <ele>191</ele>
        <time>2011-09-18T09:56:19Z</time>
      </trkpt>
      <trkpt lat="43.96078" lon="0.66448">
        <ele>191</ele>
        <time>2011-09-18T09:56:51Z</time>
      </trkpt>
      <trkpt lat="43.96118" lon="0.6646">
        <ele>191</ele>
        <time>2011-09-18T09:57:23Z</time>
      </trkpt>
      <trkpt lat="43.96159" lon="0.66472">
        <ele>190</ele>
        <time>2011-09-18T09:57:55Z</time>
      </trkpt>
      <trkpt lat="43.96196" lon="0.66473">
        <ele>189</ele>
        <time>2011-09-18T09:58:26Z</time>
      </trkpt>
      <trkpt lat="43.96232" lon="0.6648">
        <ele>188</ele>
        <time>2011-09-18T09:58:56Z</time>
      </trkpt>
      <trkpt lat="43.96269" lon="0.66498">
        <ele>186</ele>
        <time>2011-09-18T09:59:28Z</time>
      </trkpt>
      <trkpt lat="43.96308" lon="0.66525">
        <ele>184</ele>
        <time>2011-09-18T10:00:03Z</time>
      </trkpt>
      <trkpt lat="43.96345" lon="0.6655">
        <ele>184</ele>
        <time>2011-09-18T10:00:36Z</time>
      </trkpt>
      <trkpt lat="43.96375" lon="0.66576">
        <ele>184</ele>
        <time>2011-09-18T10:01:06Z</time>
      </trkpt>
      <trkpt lat="43.96382" lon="0.66584">
        <ele>184</ele>
        <time>2011-09-18T10:01:31Z</time>
      </trkpt>
      <trkpt lat="43.96386" lon="0.66577">
        <ele>185</ele>
        <time>2011-09-18T10:04:05Z</time>
      </trkpt>
      <trkpt lat="43.96388" lon="0.66575">
        <ele>185</ele>
        <time>2011-09-18T10:04:52Z</time>
      </trkpt>
      <trkpt lat="43.96391" lon="0.66581">
        <ele>185</ele>
        <time>2011-09-18T10:04:57Z</time>
      </trkpt>
      <trkpt lat="43.96391" lon="0.66582">
        <ele>188</ele>
        <time>2011-09-18T10:10:05Z</time>
      </trkpt>
      <trkpt lat="43.96387" lon="0.66584">
        <ele>188</ele>
        <time>2011-09-18T10:10:22Z</time>
      </trkpt>
      <trkpt lat="43.96385" lon="0.66589">
        <ele>188</ele>
        <time>2011-09-18T10:11:34Z</time>
      </trkpt>
      <trkpt lat="43.96361" lon="0.66613">
        <ele>186</ele>
        <time>2011-09-18T10:12:09Z</time>
      </trkpt>
      <trkpt lat="43.9635" lon="0.66613">
        <ele>186</ele>
        <time>2011-09-18T10:12:19Z</time>
      </trkpt>
      <trkpt lat="43.96342" lon="0.66618">
        <ele>186</ele>
        <time>2011-09-18T10:12:31Z</time>
      </trkpt>
      <trkpt lat="43.96318" lon="0.66648">
        <ele>185</ele>
        <time>2011-09-18T10:13:01Z</time>
      </trkpt>
      <trkpt lat="43.96319" lon="0.66655">
        <ele>185</ele>
        <time>2011-09-18T10:13:09Z</time>
      </trkpt>
      <trkpt lat="43.96346" lon="0.66688">
        <ele>183</ele>
        <time>2011-09-18T10:13:47Z</time>
      </trkpt>
      <trkpt lat="43.96378" lon="0.66713">
        <ele>182</ele>
        <time>2011-09-18T10:14:19Z</time>
      </trkpt>
      <trkpt lat="43.96403" lon="0.66744">
        <ele>181</ele>
        <time>2011-09-18T10:14:55Z</time>
      </trkpt>
      <trkpt lat="43.96433" lon="0.66788">
        <ele>181</ele>
        <time>2011-09-18T10:15:29Z</time>
      </trkpt>
      <trkpt lat="43.96455" lon="0.66816">
        <ele>182</ele>
        <time>2011-09-18T10:15:54Z</time>
      </trkpt>
      <trkpt lat="43.96456" lon="0.66862">
        <ele>184</ele>
        <time>2011-09-18T10:16:24Z</time>
      </trkpt>
      <trkpt lat="43.96465" lon="0.66915">
        <ele>185</ele>
        <time>2011-09-18T10:16:58Z</time>
      </trkpt>
      <trkpt lat="43.96472" lon="0.66971">
        <ele>185</ele>
        <time>2011-09-18T10:17:31Z</time>
      </trkpt>
      <trkpt lat="43.9647" lon="0.67021">
        <ele>185</ele>
        <time>2011-09-18T10:18:02Z</time>
      </trkpt>
      <trkpt lat="43.96461" lon="0.67072">
        <ele>185</ele>
        <time>2011-09-18T10:18:36Z</time>
      </trkpt>
      <trkpt lat="43.9644" lon="0.67118">
        <ele>183</ele>
        <time>2011-09-18T10:19:11Z</time>
      </trkpt>
      <trkpt lat="43.96414" lon="0.67163">
        <ele>178</ele>
        <time>2011-09-18T10:19:49Z</time>
      </trkpt>
      <trkpt lat="43.96394" lon="0.67206">
        <ele>175</ele>
        <time>2011-09-18T10:20:20Z</time>
      </trkpt>
      <trkpt lat="43.96373" lon="0.67253">
        <ele>173</ele>
        <time>2011-09-18T10:20:56Z</time>
      </trkpt>
      <trkpt lat="43.96354" lon="0.67298">
        <ele>172</ele>
        <time>2011-09-18T10:21:26Z</time>
      </trkpt>
      <trkpt lat="43.96341" lon="0.67358">
        <ele>172</ele>
        <time>2011-09-18T10:21:58Z</time>
      </trkpt>
      <trkpt lat="43.96328" lon="0.67406">
        <ele>174</ele>
        <time>2011-09-18T10:22:29Z</time>
      </trkpt>
      <trkpt lat="43.96317" lon="0.67462">
        <ele>174</ele>
        <time>2011-09-18T10:23:02Z</time>
      </trkpt>
      <trkpt lat="43.96303" lon="0.6751">
        <ele>174</ele>
        <time>2011-09-18T10:23:33Z</time>
      </trkpt>
      <trkpt lat="43.9629" lon="0.67557">
        <ele>174</ele>
        <time>2011-09-18T10:24:03Z</time>
      </trkpt>
      <trkpt lat="43.96278" lon="0.67602">
        <ele>175</ele>
        <time>2011-09-18T10:24:34Z</time>
      </trkpt>
      <trkpt lat="43.96264" lon="0.67658">
        <ele>173</ele>
        <time>2011-09-18T10:25:09Z</time>
      </trkpt>
      <trkpt lat="43.9625" lon="0.67709">
        <ele>172</ele>
        <time>2011-09-18T10:25:43Z</time>
      </trkpt>
      <trkpt lat="43.96235" lon="0.67762">
        <ele>171</ele>
        <time>2011-09-18T10:26:14Z</time>
      </trkpt>
      <trkpt lat="43.96226" lon="0.67809">
        <ele>169</ele>
        <time>2011-09-18T10:26:45Z</time>
      </trkpt>
      <trkpt lat="43.96228" lon="0.67864">
        <ele>167</ele>
        <time>2011-09-18T10:27:18Z</time>
      </trkpt>
      <trkpt lat="43.96224" lon="0.67918">
        <ele>166</ele>
        <time>2011-09-18T10:27:51Z</time>
      </trkpt>
      <trkpt lat="43.96212" lon="0.67952">
        <ele>165</ele>
        <time>2011-09-18T10:28:16Z</time>
      </trkpt>
      <trkpt lat="43.9619" lon="0.67978">
        <ele>163</ele>
        <time>2011-09-18T10:28:42Z</time>
      </trkpt>
      <trkpt lat="43.96166" lon="0.68017">
        <ele>159</ele>
        <time>2011-09-18T10:29:14Z</time>
      </trkpt>
      <trkpt lat="43.96135" lon="0.68038">
        <ele>157</ele>
        <time>2011-09-18T10:29:48Z</time>
      </trkpt>
      <trkpt lat="43.96112" lon="0.68055">
        <ele>155</ele>
        <time>2011-09-18T10:30:11Z</time>
      </trkpt>
      <trkpt lat="43.9611" lon="0.68056">
        <ele>155</ele>
        <time>2011-09-18T10:30:22Z</time>
      </trkpt>
      <trkpt lat="43.96105" lon="0.68055">
        <ele>155</ele>
        <time>2011-09-18T10:30:30Z</time>
      </trkpt>
      <trkpt lat="43.96097" lon="0.6805">
        <ele>155</ele>
        <time>2011-09-18T10:31:06Z</time>
      </trkpt>
      <trkpt lat="43.96089" lon="0.68035">
        <ele>155</ele>
        <time>2011-09-18T10:31:26Z</time>
      </trkpt>
      <trkpt lat="43.96088" lon="0.68042">
        <ele>155</ele>
        <time>2011-09-18T10:31:40Z</time>
      </trkpt>
      <trkpt lat="43.96085" lon="0.68042">
        <ele>157</ele>
        <time>2011-09-18T10:33:03Z</time>
      </trkpt>
      <trkpt lat="43.96088" lon="0.68038">
        <ele>160</ele>
        <time>2011-09-18T10:35:48Z</time>
      </trkpt>
      <trkpt lat="43.96088" lon="0.68036">
        <ele>160</ele>
        <time>2011-09-18T10:39:28Z</time>
      </trkpt>
      <trkpt lat="43.96088" lon="0.68037">
        <ele>159</ele>
        <time>2011-09-18T10:41:00Z</time>
      </trkpt>
      <trkpt lat="43.9609" lon="0.68039">
        <ele>160</ele>
        <time>2011-09-18T10:47:53Z</time>
      </trkpt>
      <trkpt lat="43.96085" lon="0.68036">
        <ele>163</ele>
        <time>2011-09-18T11:33:59Z</time>
      </trkpt>
      <trkpt lat="43.96083" lon="0.68037">
        <ele>164</ele>
        <time>2011-09-18T11:34:51Z</time>
      </trkpt>
      <trkpt lat="43.96075" lon="0.68029">
        <ele>165</ele>
        <time>2011-09-18T11:35:04Z</time>
      </trkpt>
      <trkpt lat="43.96072" lon="0.68034">
        <ele>166</ele>
        <time>2011-09-18T11:35:50Z</time>
      </trkpt>
      <trkpt lat="43.9607" lon="0.68035">
        <ele>166</ele>
        <time>2011-09-18T11:36:33Z</time>
      </trkpt>
      <trkpt lat="43.9607" lon="0.68032">
        <ele>165</ele>
        <time>2011-09-18T11:36:58Z</time>
      </trkpt>
      <trkpt lat="43.96068" lon="0.68027">
        <ele>165</ele>
        <time>2011-09-18T11:37:22Z</time>
      </trkpt>
      <trkpt lat="43.96072" lon="0.68027">
        <ele>166</ele>
        <time>2011-09-18T11:38:52Z</time>
      </trkpt>
      <trkpt lat="43.96077" lon="0.68029">
        <ele>167</ele>
        <time>2011-09-18T11:39:20Z</time>
      </trkpt>
      <trkpt lat="43.96082" lon="0.68035">
        <ele>168</ele>
        <time>2011-09-18T11:39:43Z</time>
      </trkpt>
      <trkpt lat="43.96087" lon="0.68041">
        <ele>168</ele>
        <time>2011-09-18T11:39:55Z</time>
      </trkpt>
      <trkpt lat="43.96088" lon="0.68041">
        <ele>164</ele>
        <time>2011-09-18T11:43:15Z</time>
      </trkpt>
      <trkpt lat="43.96084" lon="0.68033">
        <ele>163</ele>
        <time>2011-09-18T11:43:58Z</time>
      </trkpt>
      <trkpt lat="43.96078" lon="0.68018">
        <ele>163</ele>
        <time>2011-09-18T11:44:18Z</time>
      </trkpt>
      <trkpt lat="43.9608" lon="0.67975">
        <ele>161</ele>
        <time>2011-09-18T11:44:50Z</time>
      </trkpt>
      <trkpt lat="43.96079" lon="0.67949">
        <ele>161</ele>
        <time>2011-09-18T11:45:15Z</time>
      </trkpt>
      <trkpt lat="43.96076" lon="0.67941">
        <ele>160</ele>
        <time>2011-09-18T11:45:28Z</time>
      </trkpt>
      <trkpt lat="43.96072" lon="0.67937">
        <ele>159</ele>
        <time>2011-09-18T11:45:35Z</time>
      </trkpt>
      <trkpt lat="43.96044" lon="0.67923">
        <ele>157</ele>
        <time>2011-09-18T11:46:06Z</time>
      </trkpt>
      <trkpt lat="43.96018" lon="0.67901">
        <ele>156</ele>
        <time>2011-09-18T11:46:38Z</time>
      </trkpt>
      <trkpt lat="43.95983" lon="0.67882">
        <ele>155</ele>
        <time>2011-09-18T11:47:12Z</time>
      </trkpt>
      <trkpt lat="43.95953" lon="0.67857">
        <ele>154</ele>
        <time>2011-09-18T11:47:44Z</time>
      </trkpt>
      <trkpt lat="43.95927" lon="0.67832">
        <ele>153</ele>
        <time>2011-09-18T11:48:16Z</time>
      </trkpt>
      <trkpt lat="43.959" lon="0.67805">
        <ele>150</ele>
        <time>2011-09-18T11:48:47Z</time>
      </trkpt>
      <trkpt lat="43.9587" lon="0.67778">
        <ele>147</ele>
        <time>2011-09-18T11:49:20Z</time>
      </trkpt>
      <trkpt lat="43.95866" lon="0.67775">
        <ele>145</ele>
        <time>2011-09-18T11:49:26Z</time>
      </trkpt>
      <trkpt lat="43.95859" lon="0.67783">
        <ele>143</ele>
        <time>2011-09-18T11:49:44Z</time>
      </trkpt>
      <trkpt lat="43.95839" lon="0.67816">
        <ele>138</ele>
        <time>2011-09-18T11:50:15Z</time>
      </trkpt>
      <trkpt lat="43.95824" lon="0.67848">
        <ele>134</ele>
        <time>2011-09-18T11:50:49Z</time>
      </trkpt>
      <trkpt lat="43.95798" lon="0.67899">
        <ele>129</ele>
        <time>2011-09-18T11:51:23Z</time>
      </trkpt>
      <trkpt lat="43.9578" lon="0.67934">
        <ele>126</ele>
        <time>2011-09-18T11:51:53Z</time>
      </trkpt>
      <trkpt lat="43.95755" lon="0.67978">
        <ele>122</ele>
        <time>2011-09-18T11:52:27Z</time>
      </trkpt>
      <trkpt lat="43.95738" lon="0.68012">
        <ele>120</ele>
        <time>2011-09-18T11:52:56Z</time>
      </trkpt>
      <trkpt lat="43.95739" lon="0.6802">
        <ele>120</ele>
        <time>2011-09-18T11:53:02Z</time>
      </trkpt>
      <trkpt lat="43.95762" lon="0.68058">
        <ele>119</ele>
        <time>2011-09-18T11:53:34Z</time>
      </trkpt>
      <trkpt lat="43.95782" lon="0.68107">
        <ele>118</ele>
        <time>2011-09-18T11:54:08Z</time>
      </trkpt>
      <trkpt lat="43.958" lon="0.68155">
        <ele>118</ele>
        <time>2011-09-18T11:54:42Z</time>
      </trkpt>
      <trkpt lat="43.95817" lon="0.68191">
        <ele>117</ele>
        <time>2011-09-18T11:55:10Z</time>
      </trkpt>
      <trkpt lat="43.95807" lon="0.68241">
        <ele>116</ele>
        <time>2011-09-18T11:55:46Z</time>
      </trkpt>
      <trkpt lat="43.9582" lon="0.68287">
        <ele>115</ele>
        <time>2011-09-18T11:56:21Z</time>
      </trkpt>
      <trkpt lat="43.95839" lon="0.68347">
        <ele>113</ele>
        <time>2011-09-18T11:57:00Z</time>
      </trkpt>
      <trkpt lat="43.95849" lon="0.68403">
        <ele>112</ele>
        <time>2011-09-18T11:57:34Z</time>
      </trkpt>
      <trkpt lat="43.9586" lon="0.68456">
        <ele>112</ele>
        <time>2011-09-18T11:58:06Z</time>
      </trkpt>
      <trkpt lat="43.95876" lon="0.68494">
        <ele>111</ele>
        <time>2011-09-18T11:58:40Z</time>
      </trkpt>
      <trkpt lat="43.95884" lon="0.68522">
        <ele>110</ele>
        <time>2011-09-18T11:58:56Z</time>
      </trkpt>
      <trkpt lat="43.95902" lon="0.68551">
        <ele>109</ele>
        <time>2011-09-18T11:59:28Z</time>
      </trkpt>
      <trkpt lat="43.95925" lon="0.68585">
        <ele>107</ele>
        <time>2011-09-18T12:00:00Z</time>
      </trkpt>
      <trkpt lat="43.95947" lon="0.6862">
        <ele>106</ele>
        <time>2011-09-18T12:00:30Z</time>
      </trkpt>
      <trkpt lat="43.9597" lon="0.68666">
        <ele>105</ele>
        <time>2011-09-18T12:01:05Z</time>
      </trkpt>
      <trkpt lat="43.95994" lon="0.68706">
        <ele>105</ele>
        <time>2011-09-18T12:01:38Z</time>
      </trkpt>
      <trkpt lat="43.96002" lon="0.68733">
        <ele>105</ele>
        <time>2011-09-18T12:01:54Z</time>
      </trkpt>
      <trkpt lat="43.96" lon="0.6874">
        <ele>105</ele>
        <time>2011-09-18T12:02:00Z</time>
      </trkpt>
      <trkpt lat="43.95991" lon="0.68743">
        <ele>105</ele>
        <time>2011-09-18T12:02:13Z</time>
      </trkpt>
      <trkpt lat="43.95952" lon="0.68779">
        <ele>103</ele>
        <time>2011-09-18T12:02:49Z</time>
      </trkpt>
      <trkpt lat="43.95928" lon="0.68798">
        <ele>103</ele>
        <time>2011-09-18T12:03:19Z</time>
      </trkpt>
      <trkpt lat="43.95907" lon="0.68807">
        <ele>103</ele>
        <time>2011-09-18T12:03:49Z</time>
      </trkpt>
      <trkpt lat="43.95899" lon="0.68814">
        <ele>103</ele>
        <time>2011-09-18T12:04:02Z</time>
      </trkpt>
      <trkpt lat="43.95869" lon="0.68822">
        <ele>104</ele>
        <time>2011-09-18T12:04:39Z</time>
      </trkpt>
      <trkpt lat="43.95833" lon="0.68849">
        <ele>105</ele>
        <time>2011-09-18T12:05:12Z</time>
      </trkpt>
      <trkpt lat="43.95794" lon="0.68893">
        <ele>105</ele>
        <time>2011-09-18T12:05:49Z</time>
      </trkpt>
      <trkpt lat="43.9578" lon="0.6891">
        <ele>105</ele>
        <time>2011-09-18T12:06:06Z</time>
      </trkpt>
      <trkpt lat="43.95773" lon="0.68911">
        <ele>105</ele>
        <time>2011-09-18T12:06:12Z</time>
      </trkpt>
      <trkpt lat="43.95749" lon="0.6889">
        <ele>105</ele>
        <time>2011-09-18T12:06:40Z</time>
      </trkpt>
      <trkpt lat="43.95739" lon="0.6889">
        <ele>105</ele>
        <time>2011-09-18T12:06:47Z</time>
      </trkpt>
      <trkpt lat="43.95707" lon="0.68916">
        <ele>106</ele>
        <time>2011-09-18T12:07:19Z</time>
      </trkpt>
      <trkpt lat="43.95678" lon="0.68947">
        <ele>107</ele>
        <time>2011-09-18T12:07:51Z</time>
      </trkpt>
      <trkpt lat="43.95644" lon="0.68972">
        <ele>108</ele>
        <time>2011-09-18T12:08:23Z</time>
      </trkpt>
      <trkpt lat="43.95617" lon="0.6901">
        <ele>108</ele>
        <time>2011-09-18T12:08:54Z</time>
      </trkpt>
      <trkpt lat="43.95613" lon="0.6902">
        <ele>108</ele>
        <time>2011-09-18T12:09:35Z</time>
      </trkpt>
      <trkpt lat="43.95606" lon="0.69023">
        <ele>109</ele>
        <time>2011-09-18T12:10:19Z</time>
      </trkpt>
      <trkpt lat="43.95599" lon="0.6903">
        <ele>112</ele>
        <time>2011-09-18T12:11:51Z</time>
      </trkpt>
      <trkpt lat="43.9559" lon="0.6903">
        <ele>114</ele>
        <time>2011-09-18T12:13:04Z</time>
      </trkpt>
      <trkpt lat="43.95548" lon="0.69047">
        <ele>115</ele>
        <time>2011-09-18T12:13:39Z</time>
      </trkpt>
      <trkpt lat="43.95509" lon="0.69063">
        <ele>118</ele>
        <time>2011-09-18T12:14:14Z</time>
      </trkpt>
      <trkpt lat="43.95474" lon="0.69077">
        <ele>121</ele>
        <time>2011-09-18T12:14:49Z</time>
      </trkpt>
      <trkpt lat="43.95435" lon="0.69093">
        <ele>124</ele>
        <time>2011-09-18T12:15:23Z</time>
      </trkpt>
      <trkpt lat="43.954" lon="0.69107">
        <ele>126</ele>
        <time>2011-09-18T12:15:55Z</time>
      </trkpt>
      <trkpt lat="43.95368" lon="0.69126">
        <ele>126</ele>
        <time>2011-09-18T12:16:25Z</time>
      </trkpt>
      <trkpt lat="43.9533" lon="0.69143">
        <ele>126</ele>
        <time>2011-09-18T12:16:58Z</time>
      </trkpt>
      <trkpt lat="43.95321" lon="0.69141">
        <ele>126</ele>
        <time>2011-09-18T12:17:08Z</time>
      </trkpt>
      <trkpt lat="43.95288" lon="0.69116">
        <ele>125</ele>
        <time>2011-09-18T12:17:40Z</time>
      </trkpt>
      <trkpt lat="43.95253" lon="0.69092">
        <ele>125</ele>
        <time>2011-09-18T12:18:14Z</time>
      </trkpt>
      <trkpt lat="43.9522" lon="0.69067">
        <ele>125</ele>
        <time>2011-09-18T12:18:47Z</time>
      </trkpt>
      <trkpt lat="43.95184" lon="0.6905">
        <ele>124</ele>
        <time>2011-09-18T12:19:23Z</time>
      </trkpt>
      <trkpt lat="43.95172" lon="0.69046">
        <ele>124</ele>
        <time>2011-09-18T12:19:34Z</time>
      </trkpt>
      <trkpt lat="43.95155" lon="0.69001">
        <ele>122</ele>
        <time>2011-09-18T12:20:10Z</time>
      </trkpt>
      <trkpt lat="43.95142" lon="0.68979">
        <ele>122</ele>
        <time>2011-09-18T12:20:32Z</time>
      </trkpt>
      <trkpt lat="43.95132" lon="0.68979">
        <ele>122</ele>
        <time>2011-09-18T12:20:42Z</time>
      </trkpt>
      <trkpt lat="43.9511" lon="0.6899">
        <ele>121</ele>
        <time>2011-09-18T12:21:03Z</time>
      </trkpt>
      <trkpt lat="43.95102" lon="0.68994">
        <ele>121</ele>
        <time>2011-09-18T12:21:51Z</time>
      </trkpt>
      <trkpt lat="43.95097" lon="0.68994">
        <ele>121</ele>
        <time>2011-09-18T12:21:58Z</time>
      </trkpt>
      <trkpt lat="43.95065" lon="0.69002">
        <ele>123</ele>
        <time>2011-09-18T12:22:29Z</time>
      </trkpt>
      <trkpt lat="43.95029" lon="0.68995">
        <ele>125</ele>
        <time>2011-09-18T12:23:02Z</time>
      </trkpt>
      <trkpt lat="43.94993" lon="0.68998">
        <ele>126</ele>
        <time>2011-09-18T12:23:36Z</time>
      </trkpt>
      <trkpt lat="43.94962" lon="0.69001">
        <ele>127</ele>
        <time>2011-09-18T12:24:06Z</time>
      </trkpt>
      <trkpt lat="43.94929" lon="0.68998">
        <ele>128</ele>
        <time>2011-09-18T12:24:38Z</time>
      </trkpt>
      <trkpt lat="43.94894" lon="0.68991">
        <ele>129</ele>
        <time>2011-09-18T12:25:10Z</time>
      </trkpt>
      <trkpt lat="43.94892" lon="0.6899">
        <ele>129</ele>
        <time>2011-09-18T12:25:21Z</time>
      </trkpt>
      <trkpt lat="43.94886" lon="0.68993">
        <ele>131</ele>
        <time>2011-09-18T12:26:48Z</time>
      </trkpt>
      <trkpt lat="43.94877" lon="0.68992">
        <ele>131</ele>
        <time>2011-09-18T12:27:00Z</time>
      </trkpt>
      <trkpt lat="43.94841" lon="0.6899">
        <ele>131</ele>
        <time>2011-09-18T12:27:30Z</time>
      </trkpt>
      <trkpt lat="43.94835" lon="0.68986">
        <ele>130</ele>
        <time>2011-09-18T12:28:15Z</time>
      </trkpt>
      <trkpt lat="43.948" lon="0.68989">
        <ele>131</ele>
        <time>2011-09-18T12:28:47Z</time>
      </trkpt>
      <trkpt lat="43.94758" lon="0.68998">
        <ele>131</ele>
        <time>2011-09-18T12:29:20Z</time>
      </trkpt>
      <trkpt lat="43.94725" lon="0.68995">
        <ele>131</ele>
        <time>2011-09-18T12:29:56Z</time>
      </trkpt>
      <trkpt lat="43.94718" lon="0.6899">
        <ele>131</ele>
        <time>2011-09-18T12:30:12Z</time>
      </trkpt>
      <trkpt lat="43.94713" lon="0.68996">
        <ele>131</ele>
        <time>2011-09-18T12:30:19Z</time>
      </trkpt>
      <trkpt lat="43.94685" lon="0.69027">
        <ele>130</ele>
        <time>2011-09-18T12:30:52Z</time>
      </trkpt>
      <trkpt lat="43.94653" lon="0.69055">
        <ele>130</ele>
        <time>2011-09-18T12:31:26Z</time>
      </trkpt>
      <trkpt lat="43.94622" lon="0.69079">
        <ele>129</ele>
        <time>2011-09-18T12:31:58Z</time>
      </trkpt>
      <trkpt lat="43.94582" lon="0.69095">
        <ele>129</ele>
        <time>2011-09-18T12:32:30Z</time>
      </trkpt>
      <trkpt lat="43.94544" lon="0.69117">
        <ele>128</ele>
        <time>2011-09-18T12:33:02Z</time>
      </trkpt>
      <trkpt lat="43.94512" lon="0.69145">
        <ele>128</ele>
        <time>2011-09-18T12:33:33Z</time>
      </trkpt>
      <trkpt lat="43.94488" lon="0.69183">
        <ele>128</ele>
        <time>2011-09-18T12:34:03Z</time>
      </trkpt>
      <trkpt lat="43.94482" lon="0.69187">
        <ele>128</ele>
        <time>2011-09-18T12:34:09Z</time>
      </trkpt>
      <trkpt lat="43.9448" lon="0.69179">
        <ele>127</ele>
        <time>2011-09-18T12:34:16Z</time>
      </trkpt>
      <trkpt lat="43.94483" lon="0.69174">
        <ele>127</ele>
        <time>2011-09-18T12:34:36Z</time>
      </trkpt>
      <trkpt lat="43.9448" lon="0.69171">
        <ele>125</ele>
        <time>2011-09-18T12:35:41Z</time>
      </trkpt>
      <trkpt lat="43.94475" lon="0.69171">
        <ele>124</ele>
        <time>2011-09-18T12:35:57Z</time>
      </trkpt>
      <trkpt lat="43.9447" lon="0.69164">
        <ele>123</ele>
        <time>2011-09-18T12:36:05Z</time>
      </trkpt>
      <trkpt lat="43.94445" lon="0.69122">
        <ele>121</ele>
        <time>2011-09-18T12:36:36Z</time>
      </trkpt>
      <trkpt lat="43.94419" lon="0.69085">
        <ele>118</ele>
        <time>2011-09-18T12:37:08Z</time>
      </trkpt>
      <trkpt lat="43.94389" lon="0.69046">
        <ele>117</ele>
        <time>2011-09-18T12:37:41Z</time>
      </trkpt>
      <trkpt lat="43.9436" lon="0.69021">
        <ele>116</ele>
        <time>2011-09-18T12:38:13Z</time>
      </trkpt>
      <trkpt lat="43.94326" lon="0.68999">
        <ele>116</ele>
        <time>2011-09-18T12:38:44Z</time>
      </trkpt>
      <trkpt lat="43.94289" lon="0.68972">
        <ele>116</ele>
        <time>2011-09-18T12:39:17Z</time>
      </trkpt>
      <trkpt lat="43.94254" lon="0.6895">
        <ele>116</ele>
        <time>2011-09-18T12:39:48Z</time>
      </trkpt>
      <trkpt lat="43.94217" lon="0.68937">
        <ele>118</ele>
        <time>2011-09-18T12:40:23Z</time>
      </trkpt>
      <trkpt lat="43.94201" lon="0.68934">
        <ele>118</ele>
        <time>2011-09-18T12:41:06Z</time>
      </trkpt>
      <trkpt lat="43.9417" lon="0.68932">
        <ele>119</ele>
        <time>2011-09-18T12:41:40Z</time>
      </trkpt>
      <trkpt lat="43.94134" lon="0.68926">
        <ele>121</ele>
        <time>2011-09-18T12:42:14Z</time>
      </trkpt>
      <trkpt lat="43.94108" lon="0.68926">
        <ele>121</ele>
        <time>2011-09-18T12:42:42Z</time>
      </trkpt>
      <trkpt lat="43.94104" lon="0.68923">
        <ele>122</ele>
        <time>2011-09-18T12:42:47Z</time>
      </trkpt>
      <trkpt lat="43.94073" lon="0.68919">
        <ele>122</ele>
        <time>2011-09-18T12:43:23Z</time>
      </trkpt>
      <trkpt lat="43.94039" lon="0.68908">
        <ele>122</ele>
        <time>2011-09-18T12:43:55Z</time>
      </trkpt>
      <trkpt lat="43.9401" lon="0.68879">
        <ele>123</ele>
        <time>2011-09-18T12:44:27Z</time>
      </trkpt>
      <trkpt lat="43.93985" lon="0.68845">
        <ele>124</ele>
        <time>2011-09-18T12:44:57Z</time>
      </trkpt>
      <trkpt lat="43.93957" lon="0.68815">
        <ele>125</ele>
        <time>2011-09-18T12:45:28Z</time>
      </trkpt>
      <trkpt lat="43.93934" lon="0.68784">
        <ele>125</ele>
        <time>2011-09-18T12:45:58Z</time>
      </trkpt>
      <trkpt lat="43.93927" lon="0.68774">
        <ele>126</ele>
        <time>2011-09-18T12:46:08Z</time>
      </trkpt>
      <trkpt lat="43.93922" lon="0.68746">
        <ele>126</ele>
        <time>2011-09-18T12:46:28Z</time>
      </trkpt>
      <trkpt lat="43.93924" lon="0.68739">
        <ele>126</ele>
        <time>2011-09-18T12:46:34Z</time>
      </trkpt>
      <trkpt lat="43.93921" lon="0.68725">
        <ele>126</ele>
        <time>2011-09-18T12:46:46Z</time>
      </trkpt>
      <trkpt lat="43.93911" lon="0.687">
        <ele>127</ele>
        <time>2011-09-18T12:47:07Z</time>
      </trkpt>
      <trkpt lat="43.9388" lon="0.68683">
        <ele>128</ele>
        <time>2011-09-18T12:47:40Z</time>
      </trkpt>
      <trkpt lat="43.9385" lon="0.68661">
        <ele>130</ele>
        <time>2011-09-18T12:48:12Z</time>
      </trkpt>
      <trkpt lat="43.93846" lon="0.68658">
        <ele>131</ele>
        <time>2011-09-18T12:48:16Z</time>
      </trkpt>
      <trkpt lat="43.93819" lon="0.68637">
        <ele>134</ele>
        <time>2011-09-18T12:48:46Z</time>
      </trkpt>
      <trkpt lat="43.93812" lon="0.68614">
        <ele>134</ele>
        <time>2011-09-18T12:49:04Z</time>
      </trkpt>
      <trkpt lat="43.93814" lon="0.68602">
        <ele>134</ele>
        <time>2011-09-18T12:49:16Z</time>
      </trkpt>
      <trkpt lat="43.93821" lon="0.68575">
        <ele>132</ele>
        <time>2011-09-18T12:49:47Z</time>
      </trkpt>
      <trkpt lat="43.93838" lon="0.68544">
        <ele>128</ele>
        <time>2011-09-18T12:50:25Z</time>
      </trkpt>
      <trkpt lat="43.93845" lon="0.68534">
        <ele>127</ele>
        <time>2011-09-18T12:50:34Z</time>
      </trkpt>
      <trkpt lat="43.93849" lon="0.6852">
        <ele>127</ele>
        <time>2011-09-18T12:50:42Z</time>
      </trkpt>
      <trkpt lat="43.93853" lon="0.68508">
        <ele>128</ele>
        <time>2011-09-18T12:50:50Z</time>
      </trkpt>
      <trkpt lat="43.93849" lon="0.68481">
        <ele>129</ele>
        <time>2011-09-18T12:51:07Z</time>
      </trkpt>
      <trkpt lat="43.93857" lon="0.68457">
        <ele>132</ele>
        <time>2011-09-18T12:51:23Z</time>
      </trkpt>
      <trkpt lat="43.93857" lon="0.68443">
        <ele>134</ele>
        <time>2011-09-18T12:51:32Z</time>
      </trkpt>
      <trkpt lat="43.93861" lon="0.68431">
        <ele>136</ele>
        <time>2011-09-18T12:51:42Z</time>
      </trkpt>
      <trkpt lat="43.93861" lon="0.68423">
        <ele>137</ele>
        <time>2011-09-18T12:51:50Z</time>
      </trkpt>
      <trkpt lat="43.9386" lon="0.68411">
        <ele>137</ele>
        <time>2011-09-18T12:51:55Z</time>
      </trkpt>
      <trkpt lat="43.93867" lon="0.68373">
        <ele>143</ele>
        <time>2011-09-18T12:52:30Z</time>
      </trkpt>
      <trkpt lat="43.93869" lon="0.6836">
        <ele>144</ele>
        <time>2011-09-18T12:52:43Z</time>
      </trkpt>
      <trkpt lat="43.9387" lon="0.68339">
        <ele>143</ele>
        <time>2011-09-18T12:52:59Z</time>
      </trkpt>
      <trkpt lat="43.9387" lon="0.68291">
        <ele>141</ele>
        <time>2011-09-18T12:53:23Z</time>
      </trkpt>
      <trkpt lat="43.93872" lon="0.68276">
        <ele>141</ele>
        <time>2011-09-18T12:53:31Z</time>
      </trkpt>
      <trkpt lat="43.93881" lon="0.68235">
        <ele>143</ele>
        <time>2011-09-18T12:54:03Z</time>
      </trkpt>
      <trkpt lat="43.93878" lon="0.68188">
        <ele>143</ele>
        <time>2011-09-18T12:54:29Z</time>
      </trkpt>
      <trkpt lat="43.93882" lon="0.68138">
        <ele>148</ele>
        <time>2011-09-18T12:55:04Z</time>
      </trkpt>
      <trkpt lat="43.93873" lon="0.68078">
        <ele>150</ele>
        <time>2011-09-18T12:55:38Z</time>
      </trkpt>
      <trkpt lat="43.93861" lon="0.68033">
        <ele>152</ele>
        <time>2011-09-18T12:56:12Z</time>
      </trkpt>
      <trkpt lat="43.93854" lon="0.67982">
        <ele>152</ele>
        <time>2011-09-18T12:56:46Z</time>
      </trkpt>
      <trkpt lat="43.93848" lon="0.67925">
        <ele>150</ele>
        <time>2011-09-18T12:57:21Z</time>
      </trkpt>
      <trkpt lat="43.93846" lon="0.67881">
        <ele>153</ele>
        <time>2011-09-18T12:57:49Z</time>
      </trkpt>
      <trkpt lat="43.93842" lon="0.67821">
        <ele>151</ele>
        <time>2011-09-18T12:58:27Z</time>
      </trkpt>
      <trkpt lat="43.93836" lon="0.67771">
        <ele>149</ele>
        <time>2011-09-18T12:58:57Z</time>
      </trkpt>
      <trkpt lat="43.93833" lon="0.677">
        <ele>149</ele>
        <time>2011-09-18T12:59:32Z</time>
      </trkpt>
      <trkpt lat="43.93835" lon="0.67635">
        <ele>152</ele>
        <time>2011-09-18T13:00:05Z</time>
      </trkpt>
      <trkpt lat="43.93842" lon="0.67591">
        <ele>154</ele>
        <time>2011-09-18T13:00:36Z</time>
      </trkpt>
      <trkpt lat="43.93847" lon="0.67588">
        <ele>154</ele>
        <time>2011-09-18T13:00:42Z</time>
      </trkpt>
      <trkpt lat="43.93849" lon="0.67581">
        <ele>155</ele>
        <time>2011-09-18T13:00:50Z</time>
      </trkpt>
      <trkpt lat="43.93849" lon="0.67567">
        <ele>155</ele>
        <time>2011-09-18T13:01:05Z</time>
      </trkpt>
      <trkpt lat="43.93852" lon="0.67561">
        <ele>156</ele>
        <time>2011-09-18T13:01:22Z</time>
      </trkpt>
      <trkpt lat="43.93854" lon="0.67554">
        <ele>156</ele>
        <time>2011-09-18T13:01:27Z</time>
      </trkpt>
      <trkpt lat="43.93853" lon="0.67548">
        <ele>156</ele>
        <time>2011-09-18T13:01:32Z</time>
      </trkpt>
      <trkpt lat="43.93857" lon="0.67536">
        <ele>156</ele>
        <time>2011-09-18T13:01:45Z</time>
      </trkpt>
      <trkpt lat="43.9386" lon="0.67529">
        <ele>156</ele>
        <time>2011-09-18T13:01:53Z</time>
      </trkpt>
      <trkpt lat="43.93864" lon="0.67527">
        <ele>156</ele>
        <time>2011-09-18T13:02:03Z</time>
      </trkpt>
      <trkpt lat="43.93867" lon="0.67516">
        <ele>157</ele>
        <time>2011-09-18T13:02:16Z</time>
      </trkpt>
      <trkpt lat="43.93875" lon="0.67485">
        <ele>158</ele>
        <time>2011-09-18T13:02:46Z</time>
      </trkpt>
      <trkpt lat="43.93879" lon="0.67477">
        <ele>159</ele>
        <time>2011-09-18T13:03:16Z</time>
      </trkpt>
      <trkpt lat="43.9388" lon="0.67465">
        <ele>160</ele>
        <time>2011-09-18T13:03:29Z</time>
      </trkpt>
      <trkpt lat="43.93885" lon="0.67458">
        <ele>161</ele>
        <time>2011-09-18T13:03:48Z</time>
      </trkpt>
      <trkpt lat="43.93883" lon="0.67452">
        <ele>161</ele>
        <time>2011-09-18T13:03:54Z</time>
      </trkpt>
      <trkpt lat="43.93881" lon="0.67439">
        <ele>161</ele>
        <time>2011-09-18T13:04:05Z</time>
      </trkpt>
      <trkpt lat="43.93882" lon="0.67438">
        <ele>161</ele>
        <time>2011-09-18T13:06:24Z</time>
      </trkpt>
      <trkpt lat="43.93882" lon="0.67431">
        <ele>160</ele>
        <time>2011-09-18T13:08:38Z</time>
      </trkpt>
      <trkpt lat="43.93887" lon="0.67434">
        <ele>160</ele>
        <time>2011-09-18T13:08:56Z</time>
      </trkpt>
      <trkpt lat="43.93887" lon="0.67435">
        <ele>160</ele>
        <time>2011-09-18T13:09:27Z</time>
      </trkpt>
      <trkpt lat="43.93883" lon="0.67438">
        <ele>160</ele>
        <time>2011-09-18T13:10:07Z</time>
      </trkpt>
      <trkpt lat="43.93885" lon="0.67441">
        <ele>160</ele>
        <time>2011-09-18T13:11:09Z</time>
      </trkpt>
      <trkpt lat="43.93886" lon="0.67438">
        <ele>160</ele>
        <time>2011-09-18T13:11:20Z</time>
      </trkpt>
      <trkpt lat="43.93888" lon="0.67436">
        <ele>160</ele>
        <time>2011-09-18T13:11:42Z</time>
      </trkpt>
      <trkpt lat="43.93893" lon="0.67436">
        <ele>160</ele>
        <time>2011-09-18T13:11:49Z</time>
      </trkpt>
      <trkpt lat="43.9389" lon="0.6743">
        <ele>160</ele>
        <time>2011-09-18T13:12:00Z</time>
      </trkpt>
      <trkpt lat="43.93887" lon="0.67435">
        <ele>159</ele>
        <time>2011-09-18T13:12:32Z</time>
      </trkpt>
      <trkpt lat="43.93887" lon="0.6744">
        <ele>159</ele>
        <time>2011-09-18T13:15:48Z</time>
      </trkpt>
      <trkpt lat="43.93884" lon="0.67442">
        <ele>159</ele>
        <time>2011-09-18T13:16:25Z</time>
      </trkpt>
      <trkpt lat="43.93882" lon="0.67436">
        <ele>159</ele>
        <time>2011-09-18T13:16:33Z</time>
      </trkpt>
      <trkpt lat="43.93879" lon="0.67418">
        <ele>160</ele>
        <time>2011-09-18T13:16:56Z</time>
      </trkpt>
      <trkpt lat="43.93869" lon="0.67385">
        <ele>160</ele>
        <time>2011-09-18T13:17:20Z</time>
      </trkpt>
      <trkpt lat="43.93874" lon="0.67359">
        <ele>160</ele>
        <time>2011-09-18T13:17:44Z</time>
      </trkpt>
      <trkpt lat="43.93867" lon="0.67344">
        <ele>161</ele>
        <time>2011-09-18T13:17:58Z</time>
      </trkpt>
      <trkpt lat="43.93866" lon="0.673">
        <ele>162</ele>
        <time>2011-09-18T13:18:29Z</time>
      </trkpt>
      <trkpt lat="43.93858" lon="0.67254">
        <ele>163</ele>
        <time>2011-09-18T13:19:04Z</time>
      </trkpt>
      <trkpt lat="43.93845" lon="0.67204">
        <ele>164</ele>
        <time>2011-09-18T13:19:38Z</time>
      </trkpt>
      <trkpt lat="43.93838" lon="0.67153">
        <ele>166</ele>
        <time>2011-09-18T13:20:12Z</time>
      </trkpt>
      <trkpt lat="43.93835" lon="0.67129">
        <ele>168</ele>
        <time>2011-09-18T13:20:45Z</time>
      </trkpt>
      <trkpt lat="43.93826" lon="0.67077">
        <ele>171</ele>
        <time>2011-09-18T13:21:18Z</time>
      </trkpt>
      <trkpt lat="43.93823" lon="0.6706">
        <ele>171</ele>
        <time>2011-09-18T13:21:53Z</time>
      </trkpt>
      <trkpt lat="43.93832" lon="0.67026">
        <ele>172</ele>
        <time>2011-09-18T13:22:17Z</time>
      </trkpt>
      <trkpt lat="43.93829" lon="0.67019">
        <ele>172</ele>
        <time>2011-09-18T13:22:21Z</time>
      </trkpt>
      <trkpt lat="43.93815" lon="0.66971">
        <ele>173</ele>
        <time>2011-09-18T13:22:53Z</time>
      </trkpt>
      <trkpt lat="43.93808" lon="0.66923">
        <ele>175</ele>
        <time>2011-09-18T13:23:26Z</time>
      </trkpt>
      <trkpt lat="43.93807" lon="0.66915">
        <ele>175</ele>
        <time>2011-09-18T13:23:31Z</time>
      </trkpt>
      <trkpt lat="43.93803" lon="0.66909">
        <ele>176</ele>
        <time>2011-09-18T13:23:36Z</time>
      </trkpt>
      <trkpt lat="43.93786" lon="0.66894">
        <ele>176</ele>
        <time>2011-09-18T13:23:53Z</time>
      </trkpt>
      <trkpt lat="43.93778" lon="0.66844">
        <ele>177</ele>
        <time>2011-09-18T13:24:27Z</time>
      </trkpt>
      <trkpt lat="43.93772" lon="0.66795">
        <ele>178</ele>
        <time>2011-09-18T13:25:01Z</time>
      </trkpt>
      <trkpt lat="43.93762" lon="0.6675">
        <ele>179</ele>
        <time>2011-09-18T13:25:33Z</time>
      </trkpt>
      <trkpt lat="43.93751" lon="0.66702">
        <ele>178</ele>
        <time>2011-09-18T13:26:06Z</time>
      </trkpt>
      <trkpt lat="43.93743" lon="0.66661">
        <ele>178</ele>
        <time>2011-09-18T13:26:38Z</time>
      </trkpt>
      <trkpt lat="43.93739" lon="0.6664">
        <ele>178</ele>
        <time>2011-09-18T13:26:58Z</time>
      </trkpt>
      <trkpt lat="43.93745" lon="0.66614">
        <ele>178</ele>
        <time>2011-09-18T13:27:16Z</time>
      </trkpt>
      <trkpt lat="43.9376" lon="0.66583">
        <ele>179</ele>
        <time>2011-09-18T13:27:43Z</time>
      </trkpt>
      <trkpt lat="43.93765" lon="0.66563">
        <ele>179</ele>
        <time>2011-09-18T13:27:56Z</time>
      </trkpt>
      <trkpt lat="43.93769" lon="0.66558">
        <ele>179</ele>
        <time>2011-09-18T13:28:04Z</time>
      </trkpt>
      <trkpt lat="43.93772" lon="0.66558">
        <ele>180</ele>
        <time>2011-09-18T13:29:23Z</time>
      </trkpt>
      <trkpt lat="43.93769" lon="0.66547">
        <ele>184</ele>
        <time>2011-09-18T13:31:46Z</time>
      </trkpt>
      <trkpt lat="43.9376" lon="0.66543">
        <ele>185</ele>
        <time>2011-09-18T13:31:55Z</time>
      </trkpt>
      <trkpt lat="43.93723" lon="0.66526">
        <ele>188</ele>
        <time>2011-09-18T13:32:28Z</time>
      </trkpt>
      <trkpt lat="43.9369" lon="0.66509">
        <ele>190</ele>
        <time>2011-09-18T13:33:00Z</time>
      </trkpt>
      <trkpt lat="43.93651" lon="0.6649">
        <ele>190</ele>
        <time>2011-09-18T13:33:34Z</time>
      </trkpt>
      <trkpt lat="43.93619" lon="0.6647">
        <ele>190</ele>
        <time>2011-09-18T13:34:05Z</time>
      </trkpt>
      <trkpt lat="43.93586" lon="0.66455">
        <ele>191</ele>
        <time>2011-09-18T13:34:38Z</time>
      </trkpt>
      <trkpt lat="43.93582" lon="0.66453">
        <ele>191</ele>
        <time>2011-09-18T13:34:44Z</time>
      </trkpt>
      <trkpt lat="43.93578" lon="0.66455">
        <ele>191</ele>
        <time>2011-09-18T13:34:49Z</time>
      </trkpt>
      <trkpt lat="43.93574" lon="0.66459">
        <ele>191</ele>
        <time>2011-09-18T13:34:54Z</time>
      </trkpt>
      <trkpt lat="43.93571" lon="0.66466">
        <ele>191</ele>
        <time>2011-09-18T13:34:59Z</time>
      </trkpt>
      <trkpt lat="43.93572" lon="0.66524">
        <ele>191</ele>
        <time>2011-09-18T13:35:33Z</time>
      </trkpt>
      <trkpt lat="43.93573" lon="0.66576">
        <ele>190</ele>
        <time>2011-09-18T13:36:07Z</time>
      </trkpt>
      <trkpt lat="43.93571" lon="0.66583">
        <ele>190</ele>
        <time>2011-09-18T13:36:11Z</time>
      </trkpt>
      <trkpt lat="43.93566" lon="0.66585">
        <ele>190</ele>
        <time>2011-09-18T13:36:15Z</time>
      </trkpt>
      <trkpt lat="43.93529" lon="0.66571">
        <ele>191</ele>
        <time>2011-09-18T13:36:48Z</time>
      </trkpt>
      <trkpt lat="43.93494" lon="0.66572">
        <ele>190</ele>
        <time>2011-09-18T13:37:19Z</time>
      </trkpt>
      <trkpt lat="43.9346" lon="0.66575">
        <ele>189</ele>
        <time>2011-09-18T13:37:49Z</time>
      </trkpt>
      <trkpt lat="43.9342" lon="0.66574">
        <ele>189</ele>
        <time>2011-09-18T13:38:25Z</time>
      </trkpt>
      <trkpt lat="43.93385" lon="0.66578">
        <ele>190</ele>
        <time>2011-09-18T13:38:57Z</time>
      </trkpt>
      <trkpt lat="43.93343" lon="0.66581">
        <ele>190</ele>
        <time>2011-09-18T13:39:32Z</time>
      </trkpt>
      <trkpt lat="43.93303" lon="0.66585">
        <ele>192</ele>
        <time>2011-09-18T13:40:05Z</time>
      </trkpt>
      <trkpt lat="43.93263" lon="0.6659">
        <ele>194</ele>
        <time>2011-09-18T13:40:38Z</time>
      </trkpt>
      <trkpt lat="43.93227" lon="0.66604">
        <ele>195</ele>
        <time>2011-09-18T13:41:12Z</time>
      </trkpt>
      <trkpt lat="43.93194" lon="0.66623">
        <ele>196</ele>
        <time>2011-09-18T13:41:44Z</time>
      </trkpt>
      <trkpt lat="43.93163" lon="0.66648">
        <ele>196</ele>
        <time>2011-09-18T13:42:17Z</time>
      </trkpt>
      <trkpt lat="43.93132" lon="0.66682">
        <ele>196</ele>
        <time>2011-09-18T13:42:50Z</time>
      </trkpt>
      <trkpt lat="43.93111" lon="0.66707">
        <ele>196</ele>
        <time>2011-09-18T13:43:20Z</time>
      </trkpt>
      <trkpt lat="43.93079" lon="0.66738">
        <ele>198</ele>
        <time>2011-09-18T13:43:54Z</time>
      </trkpt>
      <trkpt lat="43.93048" lon="0.6676">
        <ele>200</ele>
        <time>2011-09-18T13:44:26Z</time>
      </trkpt>
      <trkpt lat="43.93016" lon="0.66782">
        <ele>201</ele>
        <time>2011-09-18T13:44:56Z</time>
      </trkpt>
      <trkpt lat="43.92982" lon="0.66788">
        <ele>203</ele>
        <time>2011-09-18T13:45:27Z</time>
      </trkpt>
      <trkpt lat="43.92947" lon="0.6678">
        <ele>205</ele>
        <time>2011-09-18T13:45:59Z</time>
      </trkpt>
      <trkpt lat="43.92911" lon="0.6677">
        <ele>207</ele>
        <time>2011-09-18T13:46:31Z</time>
      </trkpt>
      <trkpt lat="43.9288" lon="0.66753">
        <ele>207</ele>
        <time>2011-09-18T13:47:03Z</time>
      </trkpt>
      <trkpt lat="43.92846" lon="0.66736">
        <ele>206</ele>
        <time>2011-09-18T13:47:35Z</time>
      </trkpt>
      <trkpt lat="43.92841" lon="0.66735">
        <ele>205</ele>
        <time>2011-09-18T13:47:40Z</time>
      </trkpt>
      <trkpt lat="43.92837" lon="0.6674">
        <ele>205</ele>
        <time>2011-09-18T13:47:45Z</time>
      </trkpt>
      <trkpt lat="43.92827" lon="0.66784">
        <ele>203</ele>
        <time>2011-09-18T13:48:15Z</time>
      </trkpt>
      <trkpt lat="43.92823" lon="0.66797">
        <ele>203</ele>
        <time>2011-09-18T13:48:24Z</time>
      </trkpt>
      <trkpt lat="43.92807" lon="0.66812">
        <ele>202</ele>
        <time>2011-09-18T13:48:48Z</time>
      </trkpt>
      <trkpt lat="43.92804" lon="0.66804">
        <ele>203</ele>
        <time>2011-09-18T13:49:15Z</time>
      </trkpt>
      <trkpt lat="43.92794" lon="0.6679">
        <ele>203</ele>
        <time>2011-09-18T13:49:32Z</time>
      </trkpt>
      <trkpt lat="43.9279" lon="0.66788">
        <ele>203</ele>
        <time>2011-09-18T13:49:42Z</time>
      </trkpt>
      <trkpt lat="43.92789" lon="0.66781">
        <ele>203</ele>
        <time>2011-09-18T13:49:59Z</time>
      </trkpt>
      <trkpt lat="43.92757" lon="0.6675">
        <ele>202</ele>
        <time>2011-09-18T13:50:29Z</time>
      </trkpt>
      <trkpt lat="43.9273" lon="0.66725">
        <ele>200</ele>
        <time>2011-09-18T13:51:04Z</time>
      </trkpt>
      <trkpt lat="43.92708" lon="0.66695">
        <ele>198</ele>
        <time>2011-09-18T13:51:39Z</time>
      </trkpt>
      <trkpt lat="43.9268" lon="0.66666">
        <ele>197</ele>
        <time>2011-09-18T13:52:14Z</time>
      </trkpt>
      <trkpt lat="43.92652" lon="0.66635">
        <ele>196</ele>
        <time>2011-09-18T13:52:48Z</time>
      </trkpt>
      <trkpt lat="43.92626" lon="0.66602">
        <ele>194</ele>
        <time>2011-09-18T13:53:20Z</time>
      </trkpt>
      <trkpt lat="43.92601" lon="0.66571">
        <ele>193</ele>
        <time>2011-09-18T13:53:54Z</time>
      </trkpt>
      <trkpt lat="43.92574" lon="0.6654">
        <ele>191</ele>
        <time>2011-09-18T13:54:29Z</time>
      </trkpt>
      <trkpt lat="43.92544" lon="0.66515">
        <ele>189</ele>
        <time>2011-09-18T13:55:00Z</time>
      </trkpt>
      <trkpt lat="43.9254" lon="0.6651">
        <ele>189</ele>
        <time>2011-09-18T13:55:05Z</time>
      </trkpt>
      <trkpt lat="43.92545" lon="0.66498">
        <ele>188</ele>
        <time>2011-09-18T13:55:15Z</time>
      </trkpt>
      <trkpt lat="43.92566" lon="0.66458">
        <ele>187</ele>
        <time>2011-09-18T13:55:46Z</time>
      </trkpt>
      <trkpt lat="43.92591" lon="0.66422">
        <ele>185</ele>
        <time>2011-09-18T13:56:19Z</time>
      </trkpt>
      <trkpt lat="43.92613" lon="0.66389">
        <ele>184</ele>
        <time>2011-09-18T13:56:50Z</time>
      </trkpt>
      <trkpt lat="43.92632" lon="0.66369">
        <ele>182</ele>
        <time>2011-09-18T13:57:20Z</time>
      </trkpt>
      <trkpt lat="43.92645" lon="0.6635">
        <ele>182</ele>
        <time>2011-09-18T13:57:55Z</time>
      </trkpt>
      <trkpt lat="43.92663" lon="0.66322">
        <ele>181</ele>
        <time>2011-09-18T13:58:26Z</time>
      </trkpt>
      <trkpt lat="43.92667" lon="0.66317">
        <ele>181</ele>
        <time>2011-09-18T13:59:27Z</time>
      </trkpt>
      <trkpt lat="43.92667" lon="0.66313">
        <ele>179</ele>
        <time>2011-09-18T14:00:24Z</time>
      </trkpt>
      <trkpt lat="43.92672" lon="0.66314">
        <ele>179</ele>
        <time>2011-09-18T14:00:48Z</time>
      </trkpt>
      <trkpt lat="43.92673" lon="0.66306">
        <ele>179</ele>
        <time>2011-09-18T14:01:15Z</time>
      </trkpt>
      <trkpt lat="43.92695" lon="0.66274">
        <ele>177</ele>
        <time>2011-09-18T14:01:46Z</time>
      </trkpt>
      <trkpt lat="43.92717" lon="0.66234">
        <ele>177</ele>
        <time>2011-09-18T14:02:18Z</time>
      </trkpt>
      <trkpt lat="43.92748" lon="0.66196">
        <ele>177</ele>
        <time>2011-09-18T14:02:51Z</time>
      </trkpt>
      <trkpt lat="43.92774" lon="0.66162">
        <ele>176</ele>
        <time>2011-09-18T14:03:22Z</time>
      </trkpt>
      <trkpt lat="43.928" lon="0.66125">
        <ele>176</ele>
        <time>2011-09-18T14:03:53Z</time>
      </trkpt>
      <trkpt lat="43.92826" lon="0.66084">
        <ele>177</ele>
        <time>2011-09-18T14:04:25Z</time>
      </trkpt>
      <trkpt lat="43.9284" lon="0.66041">
        <ele>178</ele>
        <time>2011-09-18T14:04:55Z</time>
      </trkpt>
      <trkpt lat="43.92841" lon="0.65993">
        <ele>178</ele>
        <time>2011-09-18T14:05:26Z</time>
      </trkpt>
      <trkpt lat="43.92864" lon="0.65966">
        <ele>178</ele>
        <time>2011-09-18T14:05:57Z</time>
      </trkpt>
      <trkpt lat="43.9289" lon="0.65934">
        <ele>178</ele>
        <time>2011-09-18T14:06:32Z</time>
      </trkpt>
      <trkpt lat="43.92912" lon="0.65902">
        <ele>178</ele>
        <time>2011-09-18T14:07:05Z</time>
      </trkpt>
      <trkpt lat="43.92925" lon="0.65887">
        <ele>178</ele>
        <time>2011-09-18T14:07:22Z</time>
      </trkpt>
      <trkpt lat="43.92948" lon="0.65844">
        <ele>178</ele>
        <time>2011-09-18T14:07:57Z</time>
      </trkpt>
      <trkpt lat="43.92972" lon="0.65809">
        <ele>180</ele>
        <time>2011-09-18T14:08:32Z</time>
      </trkpt>
      <trkpt lat="43.92991" lon="0.65781">
        <ele>182</ele>
        <time>2011-09-18T14:09:07Z</time>
      </trkpt>
      <trkpt lat="43.92993" lon="0.65777">
        <ele>183</ele>
        <time>2011-09-18T14:09:15Z</time>
      </trkpt>
      <trkpt lat="43.92994" lon="0.6577">
        <ele>184</ele>
        <time>2011-09-18T14:09:29Z</time>
      </trkpt>
      <trkpt lat="43.93021" lon="0.65737">
        <ele>187</ele>
        <time>2011-09-18T14:10:03Z</time>
      </trkpt>
      <trkpt lat="43.93051" lon="0.65708">
        <ele>190</ele>
        <time>2011-09-18T14:10:35Z</time>
      </trkpt>
      <trkpt lat="43.93055" lon="0.65702">
        <ele>191</ele>
        <time>2011-09-18T14:10:40Z</time>
      </trkpt>
      <trkpt lat="43.9306" lon="0.65707">
        <ele>192</ele>
        <time>2011-09-18T14:10:55Z</time>
      </trkpt>
      <trkpt lat="43.93064" lon="0.65702">
        <ele>192</ele>
        <time>2011-09-18T14:11:01Z</time>
      </trkpt>
      <trkpt lat="43.93089" lon="0.65667">
        <ele>194</ele>
        <time>2011-09-18T14:11:33Z</time>
      </trkpt>
      <trkpt lat="43.93118" lon="0.65634">
        <ele>196</ele>
        <time>2011-09-18T14:12:06Z</time>
      </trkpt>
      <trkpt lat="43.93152" lon="0.65601">
        <ele>197</ele>
        <time>2011-09-18T14:12:38Z</time>
      </trkpt>
      <trkpt lat="43.9318" lon="0.65561">
        <ele>197</ele>
        <time>2011-09-18T14:13:10Z</time>
      </trkpt>
      <trkpt lat="43.93208" lon="0.65524">
        <ele>198</ele>
        <time>2011-09-18T14:13:44Z</time>
      </trkpt>
      <trkpt lat="43.93238" lon="0.65489">
        <ele>198</ele>
        <time>2011-09-18T14:14:17Z</time>
      </trkpt>
      <trkpt lat="43.93267" lon="0.65436">
        <ele>199</ele>
        <time>2011-09-18T14:14:50Z</time>
      </trkpt>
      <trkpt lat="43.93268" lon="0.65429">
        <ele>199</ele>
        <time>2011-09-18T14:14:55Z</time>
      </trkpt>
      <trkpt lat="43.93265" lon="0.65423">
        <ele>199</ele>
        <time>2011-09-18T14:15:01Z</time>
      </trkpt>
      <trkpt lat="43.93233" lon="0.65391">
        <ele>198</ele>
        <time>2011-09-18T14:15:33Z</time>
      </trkpt>
      <trkpt lat="43.93228" lon="0.65386">
        <ele>197</ele>
        <time>2011-09-18T14:15:38Z</time>
      </trkpt>
      <trkpt lat="43.93219" lon="0.65386">
        <ele>196</ele>
        <time>2011-09-18T14:15:50Z</time>
      </trkpt>
      <trkpt lat="43.93217" lon="0.65381">
        <ele>196</ele>
        <time>2011-09-18T14:16:13Z</time>
      </trkpt>
      <trkpt lat="43.93205" lon="0.6537">
        <ele>194</ele>
        <time>2011-09-18T14:16:30Z</time>
      </trkpt>
      <trkpt lat="43.93175" lon="0.65345">
        <ele>191</ele>
        <time>2011-09-18T14:17:04Z</time>
      </trkpt>
      <trkpt lat="43.93145" lon="0.6532">
        <ele>189</ele>
        <time>2011-09-18T14:17:36Z</time>
      </trkpt>
      <trkpt lat="43.93111" lon="0.65307">
        <ele>186</ele>
        <time>2011-09-18T14:18:07Z</time>
      </trkpt>
      <trkpt lat="43.93072" lon="0.65294">
        <ele>183</ele>
        <time>2011-09-18T14:18:41Z</time>
      </trkpt>
      <trkpt lat="43.93038" lon="0.6528">
        <ele>181</ele>
        <time>2011-09-18T14:19:12Z</time>
      </trkpt>
      <trkpt lat="43.93005" lon="0.65264">
        <ele>179</ele>
        <time>2011-09-18T14:19:42Z</time>
      </trkpt>
      <trkpt lat="43.92987" lon="0.65251">
        <ele>178</ele>
        <time>2011-09-18T14:19:59Z</time>
      </trkpt>
      <trkpt lat="43.92983" lon="0.65232">
        <ele>177</ele>
        <time>2011-09-18T14:20:11Z</time>
      </trkpt>
      <trkpt lat="43.92997" lon="0.65187">
        <ele>177</ele>
        <time>2011-09-18T14:20:43Z</time>
      </trkpt>
      <trkpt lat="43.93" lon="0.65172">
        <ele>177</ele>
        <time>2011-09-18T14:20:53Z</time>
      </trkpt>
      <trkpt lat="43.92998" lon="0.65166">
        <ele>177</ele>
        <time>2011-09-18T14:20:57Z</time>
      </trkpt>
      <trkpt lat="43.92996" lon="0.65163">
        <ele>177</ele>
        <time>2011-09-18T14:21:04Z</time>
      </trkpt>
      <trkpt lat="43.92992" lon="0.65161">
        <ele>177</ele>
        <time>2011-09-18T14:21:43Z</time>
      </trkpt>
      <trkpt lat="43.92952" lon="0.65156">
        <ele>176</ele>
        <time>2011-09-18T14:22:21Z</time>
      </trkpt>
      <trkpt lat="43.92914" lon="0.65152">
        <ele>176</ele>
        <time>2011-09-18T14:22:53Z</time>
      </trkpt>
      <trkpt lat="43.92886" lon="0.65141">
        <ele>176</ele>
        <time>2011-09-18T14:23:18Z</time>
      </trkpt>
      <trkpt lat="43.92885" lon="0.65134">
        <ele>176</ele>
        <time>2011-09-18T14:23:23Z</time>
      </trkpt>
      <trkpt lat="43.92879" lon="0.65094">
        <ele>175</ele>
        <time>2011-09-18T14:23:47Z</time>
      </trkpt>
      <trkpt lat="43.92885" lon="0.65083">
        <ele>175</ele>
        <time>2011-09-18T14:23:59Z</time>
      </trkpt>
      <trkpt lat="43.92909" lon="0.65047">
        <ele>175</ele>
        <time>2011-09-18T14:24:32Z</time>
      </trkpt>
      <trkpt lat="43.92936" lon="0.65012">
        <ele>176</ele>
        <time>2011-09-18T14:25:05Z</time>
      </trkpt>
      <trkpt lat="43.92958" lon="0.64978">
        <ele>177</ele>
        <time>2011-09-18T14:25:38Z</time>
      </trkpt>
      <trkpt lat="43.9298" lon="0.64937">
        <ele>178</ele>
        <time>2011-09-18T14:26:09Z</time>
      </trkpt>
      <trkpt lat="43.93" lon="0.64904">
        <ele>178</ele>
        <time>2011-09-18T14:26:40Z</time>
      </trkpt>
      <trkpt lat="43.93008" lon="0.64896">
        <ele>178</ele>
        <time>2011-09-18T14:26:53Z</time>
      </trkpt>
      <trkpt lat="43.93019" lon="0.64873">
        <ele>176</ele>
        <time>2011-09-18T14:27:26Z</time>
      </trkpt>
      <trkpt lat="43.93034" lon="0.64845">
        <ele>175</ele>
        <time>2011-09-18T14:28:03Z</time>
      </trkpt>
      <trkpt lat="43.93058" lon="0.64808">
        <ele>172</ele>
        <time>2011-09-18T14:28:42Z</time>
      </trkpt>
      <trkpt lat="43.93091" lon="0.64782">
        <ele>169</ele>
        <time>2011-09-18T14:29:15Z</time>
      </trkpt>
      <trkpt lat="43.93109" lon="0.6476">
        <ele>167</ele>
        <time>2011-09-18T14:29:38Z</time>
      </trkpt>
      <trkpt lat="43.9311" lon="0.64753">
        <ele>167</ele>
        <time>2011-09-18T14:29:43Z</time>
      </trkpt>
      <trkpt lat="43.93106" lon="0.64733">
        <ele>165</ele>
        <time>2011-09-18T14:30:01Z</time>
      </trkpt>
      <trkpt lat="43.93087" lon="0.64688">
        <ele>162</ele>
        <time>2011-09-18T14:30:34Z</time>
      </trkpt>
      <trkpt lat="43.93071" lon="0.64635">
        <ele>159</ele>
        <time>2011-09-18T14:31:09Z</time>
      </trkpt>
      <trkpt lat="43.93057" lon="0.646">
        <ele>155</ele>
        <time>2011-09-18T14:31:44Z</time>
      </trkpt>
      <trkpt lat="43.93041" lon="0.64562">
        <ele>152</ele>
        <time>2011-09-18T14:32:14Z</time>
      </trkpt>
      <trkpt lat="43.9302" lon="0.64516">
        <ele>152</ele>
        <time>2011-09-18T14:32:46Z</time>
      </trkpt>
      <trkpt lat="43.93006" lon="0.64473">
        <ele>152</ele>
        <time>2011-09-18T14:33:20Z</time>
      </trkpt>
      <trkpt lat="43.93003" lon="0.64418">
        <ele>152</ele>
        <time>2011-09-18T14:33:58Z</time>
      </trkpt>
      <trkpt lat="43.93009" lon="0.64391">
        <ele>152</ele>
        <time>2011-09-18T14:34:15Z</time>
      </trkpt>
      <trkpt lat="43.93006" lon="0.64379">
        <ele>152</ele>
        <time>2011-09-18T14:34:21Z</time>
      </trkpt>
      <trkpt lat="43.9301" lon="0.64323">
        <ele>153</ele>
        <time>2011-09-18T14:34:56Z</time>
      </trkpt>
      <trkpt lat="43.93016" lon="0.64272">
        <ele>153</ele>
        <time>2011-09-18T14:35:31Z</time>
      </trkpt>
      <trkpt lat="43.93023" lon="0.64272">
        <ele>152</ele>
        <time>2011-09-18T14:36:19Z</time>
      </trkpt>
      <trkpt lat="43.93027" lon="0.64274">
        <ele>152</ele>
        <time>2011-09-18T14:36:35Z</time>
      </trkpt>
      <trkpt lat="43.93032" lon="0.64273">
        <ele>151</ele>
        <time>2011-09-18T14:36:52Z</time>
      </trkpt>
      <trkpt lat="43.93024" lon="0.64277">
        <ele>151</ele>
        <time>2011-09-18T14:38:21Z</time>
      </trkpt>
      <trkpt lat="43.93021" lon="0.64272">
        <ele>151</ele>
        <time>2011-09-18T14:39:09Z</time>
      </trkpt>
      <trkpt lat="43.93014" lon="0.64283">
        <ele>151</ele>
        <time>2011-09-18T14:40:04Z</time>
      </trkpt>
      <trkpt lat="43.93004" lon="0.64308">
        <ele>151</ele>
        <time>2011-09-18T14:40:14Z</time>
      </trkpt>
      <trkpt lat="43.93009" lon="0.64306">
        <ele>151</ele>
        <time>2011-09-18T14:40:21Z</time>
      </trkpt>
      <trkpt lat="43.93015" lon="0.64294">
        <ele>151</ele>
        <time>2011-09-18T14:40:26Z</time>
      </trkpt>
      <trkpt lat="43.93016" lon="0.64287">
        <ele>151</ele>
        <time>2011-09-18T14:40:31Z</time>
      </trkpt>
      <trkpt lat="43.93021" lon="0.64281">
        <ele>151</ele>
        <time>2011-09-18T14:40:54Z</time>
      </trkpt>
      <trkpt lat="43.9302" lon="0.64274">
        <ele>152</ele>
        <time>2011-09-18T14:41:39Z</time>
      </trkpt>
      <trkpt lat="43.9302" lon="0.64268">
        <ele>152</ele>
        <time>2011-09-18T14:41:54Z</time>
      </trkpt>
      <trkpt lat="43.93021" lon="0.64262">
        <ele>155</ele>
        <time>2011-09-18T14:42:57Z</time>
      </trkpt>
      <trkpt lat="43.93032" lon="0.64217">
        <ele>156</ele>
        <time>2011-09-18T14:43:28Z</time>
      </trkpt>
      <trkpt lat="43.93049" lon="0.64187">
        <ele>157</ele>
        <time>2011-09-18T14:43:55Z</time>
      </trkpt>
      <trkpt lat="43.93061" lon="0.64179">
        <ele>158</ele>
        <time>2011-09-18T14:44:11Z</time>
      </trkpt>
      <trkpt lat="43.93063" lon="0.64173">
        <ele>158</ele>
        <time>2011-09-18T14:44:20Z</time>
      </trkpt>
      <trkpt lat="43.93077" lon="0.64168">
        <ele>158</ele>
        <time>2011-09-18T14:44:34Z</time>
      </trkpt>
      <trkpt lat="43.93103" lon="0.64135">
        <ele>159</ele>
        <time>2011-09-18T14:45:08Z</time>
      </trkpt>
      <trkpt lat="43.93111" lon="0.64126">
        <ele>159</ele>
        <time>2011-09-18T14:45:15Z</time>
      </trkpt>
      <trkpt lat="43.93114" lon="0.64117">
        <ele>159</ele>
        <time>2011-09-18T14:45:22Z</time>
      </trkpt>
      <trkpt lat="43.93118" lon="0.64112">
        <ele>159</ele>
        <time>2011-09-18T14:45:38Z</time>
      </trkpt>
      <trkpt lat="43.93153" lon="0.64096">
        <ele>160</ele>
        <time>2011-09-18T14:46:10Z</time>
      </trkpt>
      <trkpt lat="43.93179" lon="0.64078">
        <ele>160</ele>
        <time>2011-09-18T14:46:27Z</time>
      </trkpt>
      <trkpt lat="43.93186" lon="0.6406">
        <ele>160</ele>
        <time>2011-09-18T14:46:39Z</time>
      </trkpt>
      <trkpt lat="43.93184" lon="0.6404">
        <ele>160</ele>
        <time>2011-09-18T14:46:53Z</time>
      </trkpt>
      <trkpt lat="43.93161" lon="0.63998">
        <ele>160</ele>
        <time>2011-09-18T14:47:26Z</time>
      </trkpt>
      <trkpt lat="43.93157" lon="0.63992">
        <ele>160</ele>
        <time>2011-09-18T14:47:31Z</time>
      </trkpt>
      <trkpt lat="43.93145" lon="0.63973">
        <ele>159</ele>
        <time>2011-09-18T14:47:52Z</time>
      </trkpt>
      <trkpt lat="43.9314" lon="0.63939">
        <ele>156</ele>
        <time>2011-09-18T14:48:12Z</time>
      </trkpt>
      <trkpt lat="43.93142" lon="0.63933">
        <ele>156</ele>
        <time>2011-09-18T14:48:19Z</time>
      </trkpt>
      <trkpt lat="43.93145" lon="0.63898">
        <ele>154</ele>
        <time>2011-09-18T14:48:45Z</time>
      </trkpt>
      <trkpt lat="43.93142" lon="0.63893">
        <ele>154</ele>
        <time>2011-09-18T14:49:04Z</time>
      </trkpt>
      <trkpt lat="43.93144" lon="0.63884">
        <ele>154</ele>
        <time>2011-09-18T14:49:16Z</time>
      </trkpt>
      <trkpt lat="43.93147" lon="0.63833">
        <ele>153</ele>
        <time>2011-09-18T14:49:48Z</time>
      </trkpt>
      <trkpt lat="43.93147" lon="0.63826">
        <ele>153</ele>
        <time>2011-09-18T14:49:53Z</time>
      </trkpt>
      <trkpt lat="43.93149" lon="0.63812">
        <ele>154</ele>
        <time>2011-09-18T14:50:27Z</time>
      </trkpt>
      <trkpt lat="43.93145" lon="0.63808">
        <ele>154</ele>
        <time>2011-09-18T14:50:37Z</time>
      </trkpt>
      <trkpt lat="43.93146" lon="0.63797">
        <ele>156</ele>
        <time>2011-09-18T14:51:00Z</time>
      </trkpt>
      <trkpt lat="43.93151" lon="0.63786">
        <ele>157</ele>
        <time>2011-09-18T14:51:22Z</time>
      </trkpt>
      <trkpt lat="43.93153" lon="0.6378">
        <ele>157</ele>
        <time>2011-09-18T14:51:47Z</time>
      </trkpt>
      <trkpt lat="43.93157" lon="0.63771">
        <ele>157</ele>
        <time>2011-09-18T14:52:16Z</time>
      </trkpt>
      <trkpt lat="43.93155" lon="0.63721">
        <ele>156</ele>
        <time>2011-09-18T14:52:50Z</time>
      </trkpt>
      <trkpt lat="43.93159" lon="0.63673">
        <ele>155</ele>
        <time>2011-09-18T14:53:22Z</time>
      </trkpt>
      <trkpt lat="43.93163" lon="0.63611">
        <ele>154</ele>
        <time>2011-09-18T14:53:57Z</time>
      </trkpt>
      <trkpt lat="43.93179" lon="0.63568">
        <ele>153</ele>
        <time>2011-09-18T14:54:28Z</time>
      </trkpt>
      <trkpt lat="43.93182" lon="0.63558">
        <ele>153</ele>
        <time>2011-09-18T14:54:35Z</time>
      </trkpt>
      <trkpt lat="43.93182" lon="0.63551">
        <ele>154</ele>
        <time>2011-09-18T14:54:40Z</time>
      </trkpt>
      <trkpt lat="43.93197" lon="0.63521">
        <ele>154</ele>
        <time>2011-09-18T14:55:03Z</time>
      </trkpt>
      <trkpt lat="43.93206" lon="0.63517">
        <ele>154</ele>
        <time>2011-09-18T14:55:17Z</time>
      </trkpt>
      <trkpt lat="43.93215" lon="0.63505">
        <ele>153</ele>
        <time>2011-09-18T14:55:57Z</time>
      </trkpt>
      <trkpt lat="43.93212" lon="0.63507">
        <ele>153</ele>
        <time>2011-09-18T14:57:03Z</time>
      </trkpt>
      <trkpt lat="43.9321" lon="0.63505">
        <ele>151</ele>
        <time>2011-09-18T14:58:34Z</time>
      </trkpt>
      <trkpt lat="43.93211" lon="0.635">
        <ele>149</ele>
        <time>2011-09-18T14:59:01Z</time>
      </trkpt>
      <trkpt lat="43.93223" lon="0.63467">
        <ele>149</ele>
        <time>2011-09-18T14:59:28Z</time>
      </trkpt>
      <trkpt lat="43.93217" lon="0.63425">
        <ele>149</ele>
        <time>2011-09-18T15:00:10Z</time>
      </trkpt>
      <trkpt lat="43.93207" lon="0.63382">
        <ele>150</ele>
        <time>2011-09-18T15:00:46Z</time>
      </trkpt>
      <trkpt lat="43.93198" lon="0.63345">
        <ele>152</ele>
        <time>2011-09-18T15:01:16Z</time>
      </trkpt>
      <trkpt lat="43.93189" lon="0.63313">
        <ele>156</ele>
        <time>2011-09-18T15:01:46Z</time>
      </trkpt>
      <trkpt lat="43.93179" lon="0.63272">
        <ele>162</ele>
        <time>2011-09-18T15:02:19Z</time>
      </trkpt>
      <trkpt lat="43.93175" lon="0.63227">
        <ele>166</ele>
        <time>2011-09-18T15:02:49Z</time>
      </trkpt>
      <trkpt lat="43.93175" lon="0.63177">
        <ele>169</ele>
        <time>2011-09-18T15:03:21Z</time>
      </trkpt>
      <trkpt lat="43.93179" lon="0.63168">
        <ele>169</ele>
        <time>2011-09-18T15:03:29Z</time>
      </trkpt>
      <trkpt lat="43.9319" lon="0.63119">
        <ele>170</ele>
        <time>2011-09-18T15:04:00Z</time>
      </trkpt>
      <trkpt lat="43.93203" lon="0.63079">
        <ele>171</ele>
        <time>2011-09-18T15:04:29Z</time>
      </trkpt>
      <trkpt lat="43.93222" lon="0.63055">
        <ele>172</ele>
        <time>2011-09-18T15:04:55Z</time>
      </trkpt>
      <trkpt lat="43.93237" lon="0.63005">
        <ele>171</ele>
        <time>2011-09-18T15:05:29Z</time>
      </trkpt>
      <trkpt lat="43.93257" lon="0.62958">
        <ele>172</ele>
        <time>2011-09-18T15:06:01Z</time>
      </trkpt>
      <trkpt lat="43.93282" lon="0.6294">
        <ele>171</ele>
        <time>2011-09-18T15:06:36Z</time>
      </trkpt>
      <trkpt lat="43.93321" lon="0.62928">
        <ele>170</ele>
        <time>2011-09-18T15:07:18Z</time>
      </trkpt>
      <trkpt lat="43.93351" lon="0.62933">
        <ele>170</ele>
        <time>2011-09-18T15:07:53Z</time>
      </trkpt>
      <trkpt lat="43.93384" lon="0.62941">
        <ele>169</ele>
        <time>2011-09-18T15:08:24Z</time>
      </trkpt>
      <trkpt lat="43.93397" lon="0.62943">
        <ele>170</ele>
        <time>2011-09-18T15:08:38Z</time>
      </trkpt>
      <trkpt lat="43.93405" lon="0.62937">
        <ele>170</ele>
        <time>2011-09-18T15:08:46Z</time>
      </trkpt>
      <trkpt lat="43.93413" lon="0.62913">
        <ele>171</ele>
        <time>2011-09-18T15:09:04Z</time>
      </trkpt>
      <trkpt lat="43.9341" lon="0.62886">
        <ele>172</ele>
        <time>2011-09-18T15:09:29Z</time>
      </trkpt>
      <trkpt lat="43.93401" lon="0.62854">
        <ele>172</ele>
        <time>2011-09-18T15:09:55Z</time>
      </trkpt>
      <trkpt lat="43.93397" lon="0.62801">
        <ele>174</ele>
        <time>2011-09-18T15:10:34Z</time>
      </trkpt>
      <trkpt lat="43.93395" lon="0.62762">
        <ele>175</ele>
        <time>2011-09-18T15:11:06Z</time>
      </trkpt>
      <trkpt lat="43.93395" lon="0.6272">
        <ele>176</ele>
        <time>2011-09-18T15:11:35Z</time>
      </trkpt>
      <trkpt lat="43.93385" lon="0.62681">
        <ele>178</ele>
        <time>2011-09-18T15:11:59Z</time>
      </trkpt>
      <trkpt lat="43.93386" lon="0.62667">
        <ele>179</ele>
        <time>2011-09-18T15:12:06Z</time>
      </trkpt>
      <trkpt lat="43.93389" lon="0.62654">
        <ele>178</ele>
        <time>2011-09-18T15:12:13Z</time>
      </trkpt>
      <trkpt lat="43.93391" lon="0.62646">
        <ele>177</ele>
        <time>2011-09-18T15:12:34Z</time>
      </trkpt>
      <trkpt lat="43.93396" lon="0.62647">
        <ele>176</ele>
        <time>2011-09-18T15:12:47Z</time>
      </trkpt>
    </trkseg>
  </trk>
</gpx>